Wetterdaten: Dienstag, 01.08.2023
Datum Zeit Temp. Aussen Temp. o. S. Temp +5cm Feuchte Auss Luftdruck Regen Sonnenschein Regendauer Solar Windben Empfang
01.08.2023 00:00 17,3 C 16,1 C 13,3 C 98 % 1001,5 hPa 0,2 l/m 0 min 2 min 0 W/m 6,4 km/h (2 Bft) 94,87 %
01.08.2023 00:02 17,3 C 16,1 C 13,3 C 98 % 1001,4 hPa 0,0 l/m 0 min 2 min 0 W/m 12,9 km/h (3 Bft) 94,59 %
01.08.2023 00:04 17,3 C 16,1 C 13,3 C 98 % 1001,4 hPa 0,0 l/m 0 min 0 min 0 W/m 3,2 km/h (1 Bft) 94,00 %
01.08.2023 00:08 17,3 C 16,1 C 13,3 C 98 % 1001,3 hPa 0,0 l/m 0 min 4 min 0 W/m 6,4 km/h (2 Bft) 95,65 %
01.08.2023 00:10 17,3 C 16,1 C 13,3 C 98 % 1001,2 hPa 0,2 l/m 0 min 2 min 0 W/m 0,0 km/h (0 Bft) 95,74 %
01.08.2023 00:12 17,3 C 16,1 C 13,3 C 98 % 1001,2 hPa 0,0 l/m 0 min 0 min 0 W/m 6,4 km/h (2 Bft) 95,74 %
01.08.2023 00:14 17,3 C 16,1 C 13,3 C 98 % 1001,1 hPa 0,0 l/m 0 min 2 min 0 W/m 3,2 km/h (1 Bft) 95,65 %
01.08.2023 00:16 17,3 C 16,1 C 13,3 C 98 % 1001,0 hPa 0,0 l/m 0 min 0 min 0 W/m 3,2 km/h (1 Bft) 95,74 %
01.08.2023 00:18 17,3 C 16,1 C 13,3 C 98 % 1001,0 hPa 0,0 l/m 0 min 2 min 0 W/m 3,2 km/h (1 Bft) 95,74 %
01.08.2023 00:20 17,3 C 16,1 C 13,3 C 98 % 1001,2 hPa 0,2 l/m 0 min 2 min 0 W/m 3,2 km/h (1 Bft) 93,62 %
01.08.2023 00:22 17,3 C 16,1 C 13,3 C 98 % 1001,0 hPa 0,2 l/m 0 min 2 min 0 W/m 3,2 km/h (1 Bft) 93,62 %
01.08.2023 00:24 17,3 C 16,1 C 13,3 C 98 % 1001,0 hPa 0,4 l/m 0 min 2 min 0 W/m 0,0 km/h (0 Bft) 95,74 %
01.08.2023 00:26 17,3 C 16,1 C 13,3 C 98 % 1000,9 hPa 0,0 l/m 0 min 2 min 0 W/m 3,2 km/h (1 Bft) 97,87 %
01.08.2023 00:28 17,3 C 16,1 C 13,3 C 98 % 1000,9 hPa 0,0 l/m 0 min 2 min 0 W/m 6,4 km/h (2 Bft) 95,65 %
01.08.2023 00:30 17,3 C 16,1 C 13,3 C 98 % 1000,9 hPa 0,2 l/m 0 min 0 min 0 W/m 3,2 km/h (1 Bft) 97,87 %
01.08.2023 00:32 17,3 C 16,1 C 13,3 C 98 % 1000,8 hPa 0,0 l/m 0 min 2 min 0 W/m 9,7 km/h (2 Bft) 97,87 %
01.08.2023 00:34 17,3 C 16,1 C 13,3 C 98 % 1000,9 hPa 0,4 l/m 0 min 2 min 0 W/m 3,2 km/h (1 Bft) 95,74 %
01.08.2023 00:36 17,3 C 16,1 C 13,3 C 98 % 1000,8 hPa 0,6 l/m 0 min 2 min 0 W/m 9,7 km/h (2 Bft) 95,74 %
01.08.2023 00:38 17,3 C 16,1 C 13,3 C 98 % 1000,7 hPa 0,2 l/m 0 min 2 min 0 W/m 6,4 km/h (2 Bft) 95,74 %
01.08.2023 00:40 17,3 C 16,1 C 13,3 C 98 % 1000,7 hPa 0,2 l/m 0 min 2 min 0 W/m 9,7 km/h (2 Bft) 93,48 %
01.08.2023 00:42 17,3 C 16,1 C 13,3 C 98 % 1000,6 hPa 0,2 l/m 0 min 2 min 0 W/m 12,9 km/h (3 Bft) 95,74 %
01.08.2023 00:44 17,3 C 16,1 C 13,3 C 98 % 1000,6 hPa 0,2 l/m 0 min 2 min 0 W/m 6,4 km/h (2 Bft) 97,87 %
01.08.2023 00:46 17,3 C 16,1 C 13,3 C 98 % 1000,5 hPa 0,0 l/m 0 min 2 min 0 W/m 3,2 km/h (1 Bft) 97,87 %
01.08.2023 00:48 17,3 C 16,1 C 13,3 C 98 % 1000,4 hPa 0,2 l/m 0 min 2 min 0 W/m 6,4 km/h (2 Bft) 93,62 %
01.08.2023 00:50 17,3 C 16,1 C 13,3 C 98 % 1000,4 hPa 0,0 l/m 0 min 2 min 0 W/m 12,9 km/h (3 Bft) 97,87 %
01.08.2023 00:52 17,3 C 16,1 C 13,3 C 98 % 1000,4 hPa 0,0 l/m 0 min 2 min 0 W/m 6,4 km/h (2 Bft) 97,87 %
01.08.2023 00:54 17,3 C 16,1 C 13,3 C 98 % 1000,3 hPa 0,2 l/m 0 min 2 min 0 W/m 6,4 km/h (2 Bft) 95,65 %
01.08.2023 00:56 17,3 C 16,1 C 13,3 C 98 % 1000,3 hPa 0,0 l/m 0 min 2 min 0 W/m 3,2 km/h (1 Bft) 97,87 %
01.08.2023 00:58 17,3 C 16,1 C 13,3 C 98 % 1000,3 hPa 0,0 l/m 0 min 2 min 0 W/m 3,2 km/h (1 Bft) 97,87 %
01.08.2023 01:00 17,3 C 16,1 C 13,3 C 98 % 1000,3 hPa 0,2 l/m 0 min 2 min 0 W/m 6,4 km/h (2 Bft) 97,87 %
01.08.2023 01:02 17,3 C 16,1 C 13,3 C 99 % 1000,2 hPa 0,2 l/m 0 min 2 min 0 W/m 3,2 km/h (1 Bft) 95,74 %
01.08.2023 01:04 17,3 C 16,1 C 13,3 C 99 % 1000,2 hPa 0,0 l/m 0 min 0 min 0 W/m 6,4 km/h (2 Bft) 97,87 %
01.08.2023 01:06 17,3 C 16,1 C 13,3 C 99 % 1000,1 hPa 0,0 l/m 0 min 0 min 0 W/m 6,4 km/h (2 Bft) 98,28 %
01.08.2023 01:08 17,3 C 16,1 C 13,3 C 99 % 1000,2 hPa 0,0 l/m 0 min 2 min 0 W/m 3,2 km/h (1 Bft) 97,14 %
01.08.2023 01:10 17,3 C 16,1 C 13,3 C 99 % 1000,1 hPa 0,6 l/m 0 min 2 min 0 W/m 9,7 km/h (2 Bft) 100,00 %
01.08.2023 01:12 17,3 C 16,1 C 13,3 C 99 % 1000,0 hPa 0,2 l/m 0 min 2 min 0 W/m 12,9 km/h (3 Bft) 100,00 %
01.08.2023 01:14 17,3 C 16,1 C 13,3 C 99 % 1000,0 hPa 0,0 l/m 0 min 2 min 0 W/m 12,9 km/h (3 Bft) 100,00 %
01.08.2023 01:16 17,3 C 16,1 C 13,3 C 99 % 999,9 hPa 0,0 l/m 0 min 0 min 0 W/m 9,7 km/h (2 Bft) 100,00 %
01.08.2023 01:18 17,3 C 16,1 C 13,3 C 99 % 999,8 hPa 0,0 l/m 0 min 0 min 0 W/m 9,7 km/h (2 Bft) 100,00 %
01.08.2023 01:20 17,3 C 16,1 C 13,3 C 99 % 999,9 hPa 0,0 l/m 0 min 0 min 0 W/m 12,9 km/h (3 Bft) 100,00 %
01.08.2023 01:22 17,3 C 16,1 C 13,3 C 99 % 999,9 hPa 0,2 l/m 0 min 2 min 0 W/m 6,4 km/h (2 Bft) 100,00 %
01.08.2023 01:24 17,3 C 16,1 C 13,3 C 99 % 1000,0 hPa 0,0 l/m 0 min 2 min 0 W/m 12,9 km/h (3 Bft) 100,00 %
01.08.2023 01:26 17,3 C 16,1 C 13,3 C 99 % 1000,0 hPa 0,2 l/m 0 min 2 min 0 W/m 6,4 km/h (2 Bft) 97,87 %
01.08.2023 01:28 17,3 C 16,1 C 13,3 C 99 % 1000,0 hPa 0,2 l/m 0 min 2 min 0 W/m 0,0 km/h (0 Bft) 100,00 %
01.08.2023 01:30 17,3 C 16,1 C 13,3 C 99 % 1000,0 hPa 0,2 l/m 0 min 2 min 0 W/m 9,7 km/h (2 Bft) 95,74 %
01.08.2023 01:32 17,3 C 16,1 C 13,3 C 99 % 999,9 hPa 0,0 l/m 0 min 2 min 0 W/m 9,7 km/h (2 Bft) 100,00 %
01.08.2023 01:34 17,3 C 16,1 C 13,3 C 99 % 999,9 hPa 0,2 l/m 0 min 2 min 0 W/m 6,4 km/h (2 Bft) 100,00 %
01.08.2023 01:36 17,3 C 16,1 C 13,3 C 99 % 999,8 hPa 0,2 l/m 0 min 2 min 0 W/m 3,2 km/h (1 Bft) 100,00 %
01.08.2023 01:38 17,3 C 16,1 C 13,3 C 99 % 999,7 hPa 0,2 l/m 0 min 2 min 0 W/m 0,0 km/h (0 Bft) 97,87 %
01.08.2023 01:40 17,3 C 16,1 C 13,3 C 99 % 999,8 hPa 0,0 l/m 0 min 2 min 0 W/m 0,0 km/h (0 Bft) 100,00 %
01.08.2023 01:42 17,3 C 16,1 C 13,3 C 99 % 999,8 hPa 0,0 l/m 0 min 2 min 0 W/m 3,2 km/h (1 Bft) 100,00 %
01.08.2023 01:44 17,3 C 16,1 C 13,3 C 99 % 999,8 hPa 0,2 l/m 0 min 2 min 0 W/m 6,4 km/h (2 Bft) 100,00 %
01.08.2023 01:46 17,3 C 16,1 C 13,3 C 99 % 999,8 hPa 0,2 l/m 0 min 2 min 0 W/m 3,2 km/h (1 Bft) 100,00 %
01.08.2023 01:48 17,3 C 16,1 C 13,3 C 99 % 999,8 hPa 0,2 l/m 0 min 2 min 0 W/m 6,4 km/h (2 Bft) 97,87 %
01.08.2023 01:50 17,3 C 16,1 C 13,3 C 99 % 999,8 hPa 0,2 l/m 0 min 2 min 0 W/m 3,2 km/h (1 Bft) 100,00 %
01.08.2023 01:52 17,3 C 16,1 C 13,3 C 99 % 999,8 hPa 0,2 l/m 0 min 2 min 0 W/m 6,4 km/h (2 Bft) 100,00 %
01.08.2023 01:54 17,3 C 16,1 C 13,3 C 99 % 999,8 hPa 0,2 l/m 0 min 2 min 0 W/m 3,2 km/h (1 Bft) 100,00 %
01.08.2023 01:56 17,3 C 16,1 C 13,3 C 99 % 999,7 hPa 0,2 l/m 0 min 2 min 0 W/m 3,2 km/h (1 Bft) 93,62 %
01.08.2023 01:58 17,3 C 16,1 C 13,3 C 99 % 999,7 hPa 0,2 l/m 0 min 2 min 0 W/m 6,4 km/h (2 Bft) 100,00 %
01.08.2023 02:00 17,3 C 16,1 C 13,3 C 99 % 999,6 hPa 0,2 l/m 0 min 2 min 0 W/m 6,4 km/h (2 Bft) 100,00 %
01.08.2023 02:02 17,3 C 16,1 C 13,3 C 99 % 999,6 hPa 0,2 l/m 0 min 2 min 0 W/m 6,4 km/h (2 Bft) 97,87 %
01.08.2023 02:04 17,2 C 16,1 C 13,3 C 99 % 999,7 hPa 0,2 l/m 0 min 2 min 0 W/m 6,4 km/h (2 Bft) 100,00 %
01.08.2023 02:06 17,2 C 16,1 C 13,3 C 99 % 999,7 hPa 0,0 l/m 0 min 2 min 0 W/m 9,7 km/h (2 Bft) 97,87 %
01.08.2023 02:08 17,2 C 16,1 C 13,3 C 99 % 999,8 hPa 0,2 l/m 0 min 2 min 0 W/m 3,2 km/h (1 Bft) 100,00 %
01.08.2023 02:10 17,2 C 16,1 C 13,3 C 99 % 999,7 hPa 0,0 l/m 0 min 2 min 0 W/m 0,0 km/h (0 Bft) 100,00 %
01.08.2023 02:14 17,1 C 16,1 C 13,3 C 99 % 999,2 hPa 0,0 l/m 0 min 0 min 0 W/m 6,4 km/h (2 Bft) 100,00 %
01.08.2023 02:16 17,1 C 16,1 C 13,3 C 99 % 999,2 hPa 0,0 l/m 0 min 0 min 0 W/m 9,7 km/h (2 Bft) 97,83 %
01.08.2023 02:18 17,1 C 16,1 C 13,3 C 99 % 999,3 hPa 0,2 l/m 0 min 0 min 0 W/m 6,4 km/h (2 Bft) 95,74 %
01.08.2023 02:20 17,1 C 16,1 C 13,3 C 99 % 999,1 hPa 0,0 l/m 0 min 2 min 0 W/m 6,4 km/h (2 Bft) 97,87 %
01.08.2023 02:22 17,1 C 16,1 C 13,3 C 99 % 999,2 hPa 0,0 l/m 0 min 2 min 0 W/m 9,7 km/h (2 Bft) 100,00 %
01.08.2023 02:24 17,1 C 16,1 C 13,3 C 99 % 999,4 hPa 0,0 l/m 0 min 2 min 0 W/m 3,2 km/h (1 Bft) 100,00 %
01.08.2023 02:26 17,1 C 16,1 C 13,3 C 99 % 999,4 hPa 0,0 l/m 0 min 2 min 0 W/m 3,2 km/h (1 Bft) 100,00 %
01.08.2023 02:28 17,1 C 16,1 C 13,3 C 99 % 999,4 hPa 0,0 l/m 0 min 2 min 0 W/m 3,2 km/h (1 Bft) 97,87 %
01.08.2023 02:30 17,1 C 16,1 C 13,3 C 99 % 999,4 hPa 0,0 l/m 0 min 0 min 0 W/m 6,4 km/h (2 Bft) 97,83 %
01.08.2023 02:32 17,1 C 16,1 C 13,3 C 99 % 999,5 hPa 0,2 l/m 0 min 0 min 0 W/m 3,2 km/h (1 Bft) 93,62 %
01.08.2023 02:34 17,1 C 16,1 C 13,3 C 99 % 999,5 hPa 0,0 l/m 0 min 2 min 0 W/m 0,0 km/h (0 Bft) 93,62 %
01.08.2023 02:36 17,1 C 16,1 C 13,3 C 99 % 999,4 hPa 0,2 l/m 0 min 2 min 0 W/m 3,2 km/h (1 Bft) 95,74 %
01.08.2023 02:38 17,0 C 16,1 C 13,3 C 99 % 999,3 hPa 0,0 l/m 0 min 2 min 0 W/m 3,2 km/h (1 Bft) 95,74 %
01.08.2023 02:40 17,0 C 16,1 C 13,3 C 99 % 999,2 hPa 0,2 l/m 0 min 2 min 0 W/m 0,0 km/h (0 Bft) 95,74 %
01.08.2023 02:42 17,0 C 16,1 C 13,3 C 99 % 999,2 hPa 0,0 l/m 0 min 0 min 0 W/m 0,0 km/h (0 Bft) 95,65 %
01.08.2023 02:44 17,0 C 16,1 C 13,3 C 99 % 999,2 hPa 0,0 l/m 0 min 0 min 0 W/m 3,2 km/h (1 Bft) 95,74 %
01.08.2023 02:46 17,0 C 16,1 C 13,3 C 99 % 999,1 hPa 0,0 l/m 0 min 0 min 0 W/m 3,2 km/h (1 Bft) 93,62 %
01.08.2023 02:48 17,0 C 16,1 C 13,3 C 99 % 999,2 hPa 0,0 l/m 0 min 0 min 0 W/m 3,2 km/h (1 Bft) 93,62 %
01.08.2023 02:50 17,1 C 16,1 C 13,3 C 99 % 999,2 hPa 0,0 l/m 0 min 0 min 0 W/m 0,0 km/h (0 Bft) 93,62 %
01.08.2023 02:52 17,1 C 16,1 C 13,3 C 99 % 999,2 hPa 0,0 l/m 0 min 0 min 0 W/m 0,0 km/h (0 Bft) 93,62 %
01.08.2023 02:54 17,1 C 16,1 C 13,3 C 99 % 999,2 hPa 0,0 l/m 0 min 0 min 0 W/m 0,0 km/h (0 Bft) 93,62 %
01.08.2023 02:56 17,1 C 16,1 C 13,3 C 99 % 999,1 hPa 0,0 l/m 0 min 0 min 0 W/m 0,0 km/h (0 Bft) 93,48 %
01.08.2023 02:58 17,1 C 16,1 C 13,3 C 99 % 999,1 hPa 0,0 l/m 0 min 0 min 0 W/m 0,0 km/h (0 Bft) 91,49 %
01.08.2023 03:00 17,1 C 16,1 C 13,3 C 99 % 999,0 hPa 0,0 l/m 0 min 0 min 0 W/m 0,0 km/h (0 Bft) 91,49 %
01.08.2023 03:02 17,1 C 16,1 C 13,3 C 99 % 998,9 hPa 0,0 l/m 0 min 0 min 0 W/m 3,2 km/h (1 Bft) 91,49 %
01.08.2023 03:04 17,1 C 16,1 C 13,3 C 99 % 998,9 hPa 0,0 l/m 0 min 0 min 0 W/m 0,0 km/h (0 Bft) 95,92 %
01.08.2023 03:06 17,1 C 16,1 C 13,3 C 99 % 999,0 hPa 0,0 l/m 0 min 0 min 0 W/m 0,0 km/h (0 Bft) 95,83 %
01.08.2023 03:08 17,1 C 16,1 C 13,3 C 99 % 999,0 hPa 0,0 l/m 0 min 0 min 0 W/m 0,0 km/h (0 Bft) 95,65 %
01.08.2023 03:10 17,1 C 16,1 C 13,3 C 99 % 999,0 hPa 0,0 l/m 0 min 2 min 0 W/m 0,0 km/h (0 Bft) 93,62 %
01.08.2023 03:12 17,1 C 16,1 C 13,3 C 99 % 999,0 hPa 0,0 l/m 0 min 2 min 0 W/m 0,0 km/h (0 Bft) 95,74 %
01.08.2023 03:14 17,1 C 16,1 C 13,3 C 99 % 999,0 hPa 0,0 l/m 0 min 2 min 0 W/m 0,0 km/h (0 Bft) 91,49 %
01.08.2023 03:16 17,1 C 16,1 C 13,3 C 99 % 999,0 hPa 0,0 l/m 0 min 2 min 0 W/m 0,0 km/h (0 Bft) 95,74 %
01.08.2023 03:18 17,1 C 16,1 C 13,3 C 99 % 998,8 hPa 0,0 l/m 0 min 2 min 0 W/m 3,2 km/h (1 Bft) 95,74 %
01.08.2023 03:20 17,1 C 16,1 C 13,3 C 99 % 998,9 hPa 0,0 l/m 0 min 2 min 0 W/m 3,2 km/h (1 Bft) 95,74 %
01.08.2023 03:22 17,1 C 16,1 C 13,3 C 99 % 998,8 hPa 0,2 l/m 0 min 2 min 0 W/m 12,9 km/h (3 Bft) 97,83 %
01.08.2023 03:24 17,1 C 16,1 C 13,3 C 99 % 998,7 hPa 0,0 l/m 0 min 2 min 0 W/m 6,4 km/h (2 Bft) 97,87 %
01.08.2023 03:26 17,1 C 16,1 C 13,3 C 99 % 998,6 hPa 0,0 l/m 0 min 0 min 0 W/m 6,4 km/h (2 Bft) 97,87 %
01.08.2023 03:28 17,1 C 16,1 C 13,3 C 99 % 998,6 hPa 0,0 l/m 0 min 0 min 0 W/m 3,2 km/h (1 Bft) 97,87 %
01.08.2023 03:30 17,1 C 16,1 C 13,3 C 99 % 998,6 hPa 0,0 l/m 0 min 2 min 0 W/m 6,4 km/h (2 Bft) 95,74 %
01.08.2023 03:32 17,1 C 16,1 C 13,3 C 99 % 998,6 hPa 0,0 l/m 0 min 0 min 0 W/m 3,2 km/h (1 Bft) 95,74 %
01.08.2023 03:34 17,1 C 16,1 C 13,3 C 99 % 998,6 hPa 0,0 l/m 0 min 0 min 0 W/m 6,4 km/h (2 Bft) 97,83 %
01.08.2023 03:36 17,0 C 16,1 C 13,3 C 99 % 998,6 hPa 0,0 l/m 0 min 0 min 0 W/m 3,2 km/h (1 Bft) 100,00 %
01.08.2023 03:38 17,0 C 16,1 C 13,3 C 100 % 998,5 hPa 0,0 l/m 0 min 0 min 0 W/m 3,2 km/h (1 Bft) 100,00 %
01.08.2023 03:40 17,0 C 16,1 C 13,3 C 100 % 998,5 hPa 0,0 l/m 0 min 0 min 0 W/m 6,4 km/h (2 Bft) 97,87 %
01.08.2023 03:42 17,0 C 16,1 C 13,3 C 100 % 998,6 hPa 0,0 l/m 0 min 2 min 0 W/m 16,1 km/h (3 Bft) 97,87 %
01.08.2023 03:44 17,0 C 16,1 C 13,3 C 100 % 998,6 hPa 0,0 l/m 0 min 2 min 0 W/m 6,4 km/h (2 Bft) 97,87 %
01.08.2023 03:46 16,9 C 16,1 C 13,3 C 100 % 998,5 hPa 0,0 l/m 0 min 0 min 0 W/m 12,9 km/h (3 Bft) 100,00 %
01.08.2023 03:48 16,9 C 16,1 C 13,3 C 100 % 998,6 hPa 0,0 l/m 0 min 0 min 0 W/m 6,4 km/h (2 Bft) 100,00 %
01.08.2023 03:50 16,9 C 16,1 C 13,3 C 99 % 998,6 hPa 0,0 l/m 0 min 0 min 0 W/m 12,9 km/h (3 Bft) 100,00 %
01.08.2023 03:52 16,8 C 15,6 C 13,3 C 99 % 998,6 hPa 0,0 l/m 0 min 0 min 0 W/m 9,7 km/h (2 Bft) 100,00 %
01.08.2023 03:54 16,8 C 15,6 C 13,3 C 99 % 998,6 hPa 0,0 l/m 0 min 0 min 0 W/m 12,9 km/h (3 Bft) 100,00 %
01.08.2023 03:56 16,8 C 15,6 C 13,3 C 99 % 998,6 hPa 0,0 l/m 0 min 0 min 0 W/m 6,4 km/h (2 Bft) 100,00 %
01.08.2023 03:58 16,8 C 15,6 C 13,3 C 99 % 998,6 hPa 0,0 l/m 0 min 0 min 0 W/m 12,9 km/h (3 Bft) 100,00 %
01.08.2023 04:00 16,8 C 15,6 C 13,3 C 99 % 998,6 hPa 0,0 l/m 0 min 0 min 0 W/m 12,9 km/h (3 Bft) 100,00 %
01.08.2023 04:02 16,8 C 15,6 C 13,3 C 99 % 998,7 hPa 0,0 l/m 0 min 0 min 0 W/m 6,4 km/h (2 Bft) 100,00 %
01.08.2023 04:04 16,8 C 16,1 C 13,3 C 99 % 998,6 hPa 0,0 l/m 0 min 0 min 0 W/m 3,2 km/h (1 Bft) 100,00 %
01.08.2023 04:06 16,8 C 15,6 C 13,3 C 99 % 998,6 hPa 0,0 l/m 0 min 0 min 0 W/m 6,4 km/h (2 Bft) 100,00 %
01.08.2023 04:08 16,8 C 15,6 C 13,3 C 99 % 998,6 hPa 0,0 l/m 0 min 0 min 0 W/m 9,7 km/h (2 Bft) 100,00 %
01.08.2023 04:10 16,7 C 15,6 C 13,3 C 99 % 998,6 hPa 0,0 l/m 0 min 0 min 0 W/m 12,9 km/h (3 Bft) 100,00 %
01.08.2023 04:12 16,7 C 15,6 C 12,8 C 100 % 998,7 hPa 0,0 l/m 0 min 0 min 0 W/m 16,1 km/h (3 Bft) 100,00 %
01.08.2023 04:14 16,6 C 15,6 C 12,8 C 100 % 998,7 hPa 0,0 l/m 0 min 0 min 0 W/m 9,7 km/h (2 Bft) 93,62 %
01.08.2023 04:16 16,4 C 15,6 C 12,8 C 99 % 998,7 hPa 0,0 l/m 0 min 0 min 0 W/m 16,1 km/h (3 Bft) 100,00 %
01.08.2023 04:18 16,4 C 15,6 C 12,8 C 99 % 998,6 hPa 0,0 l/m 0 min 2 min 0 W/m 12,9 km/h (3 Bft) 100,00 %
01.08.2023 04:20 16,3 C 15,6 C 12,8 C 99 % 998,6 hPa 0,0 l/m 0 min 2 min 0 W/m 12,9 km/h (3 Bft) 97,87 %
01.08.2023 04:22 16,2 C 15,0 C 12,8 C 99 % 998,6 hPa 0,0 l/m 0 min 2 min 0 W/m 12,9 km/h (3 Bft) 97,87 %
01.08.2023 04:24 16,1 C 15,0 C 12,8 C 99 % 998,6 hPa 0,0 l/m 0 min 2 min 0 W/m 6,4 km/h (2 Bft) 100,00 %
01.08.2023 04:26 16,1 C 15,0 C 12,8 C 99 % 998,6 hPa 0,2 l/m 0 min 2 min 0 W/m 9,7 km/h (2 Bft) 97,87 %
01.08.2023 04:28 16,0 C 15,0 C 12,8 C 99 % 998,6 hPa 0,0 l/m 0 min 2 min 0 W/m 6,4 km/h (2 Bft) 97,87 %
01.08.2023 04:30 15,9 C 15,0 C 12,8 C 99 % 998,5 hPa 0,0 l/m 0 min 0 min 0 W/m 12,9 km/h (3 Bft) 97,83 %
01.08.2023 04:32 15,9 C 15,0 C 12,8 C 99 % 998,6 hPa 0,0 l/m 0 min 2 min 0 W/m 9,7 km/h (2 Bft) 97,87 %
01.08.2023 04:34 15,9 C 15,0 C 12,2 C 99 % 998,7 hPa 0,0 l/m 0 min 2 min 0 W/m 6,4 km/h (2 Bft) 97,87 %
01.08.2023 04:36 15,9 C 15,0 C 12,2 C 99 % 998,6 hPa 0,0 l/m 0 min 0 min 0 W/m 12,9 km/h (3 Bft) 97,87 %
01.08.2023 04:38 15,9 C 15,0 C 12,2 C 99 % 998,7 hPa 0,0 l/m 0 min 0 min 0 W/m 19,3 km/h (3 Bft) 97,87 %
01.08.2023 04:40 15,8 C 15,0 C 12,2 C 99 % 998,7 hPa 0,0 l/m 0 min 0 min 0 W/m 16,1 km/h (3 Bft) 97,87 %
01.08.2023 04:42 15,8 C 15,0 C 12,2 C 99 % 998,7 hPa 0,0 l/m 0 min 0 min 0 W/m 12,9 km/h (3 Bft) 97,83 %
01.08.2023 04:44 15,8 C 15,0 C 12,2 C 99 % 998,8 hPa 0,0 l/m 0 min 0 min 0 W/m 16,1 km/h (3 Bft) 97,87 %
01.08.2023 04:46 15,8 C 15,0 C 12,2 C 99 % 998,8 hPa 0,0 l/m 0 min 0 min 0 W/m 22,5 km/h (4 Bft) 95,74 %
01.08.2023 04:48 15,7 C 15,0 C 12,2 C 99 % 998,8 hPa 0,0 l/m 0 min 0 min 0 W/m 12,9 km/h (3 Bft) 97,87 %
01.08.2023 04:50 15,7 C 15,0 C 12,2 C 99 % 998,8 hPa 0,0 l/m 0 min 0 min 0 W/m 16,1 km/h (3 Bft) 97,87 %
01.08.2023 04:52 15,7 C 15,0 C 12,2 C 99 % 998,8 hPa 0,0 l/m 0 min 0 min 0 W/m 9,7 km/h (2 Bft) 97,87 %
01.08.2023 04:54 15,7 C 15,0 C 12,2 C 99 % 998,8 hPa 0,0 l/m 0 min 0 min 0 W/m 12,9 km/h (3 Bft) 97,87 %
01.08.2023 04:56 15,7 C 15,0 C 12,2 C 99 % 998,8 hPa 0,0 l/m 0 min 0 min 0 W/m 19,3 km/h (3 Bft) 97,83 %
01.08.2023 04:58 15,7 C 15,0 C 12,2 C 99 % 998,9 hPa 0,0 l/m 0 min 0 min 0 W/m 12,9 km/h (3 Bft) 97,87 %
01.08.2023 05:00 15,6 C 15,0 C 12,2 C 99 % 999,0 hPa 0,0 l/m 0 min 0 min 0 W/m 19,3 km/h (3 Bft) 97,87 %
01.08.2023 05:02 15,6 C 15,0 C 12,2 C 99 % 999,0 hPa 0,0 l/m 0 min 0 min 0 W/m 6,4 km/h (2 Bft) 100,00 %
01.08.2023 05:04 15,6 C 15,0 C 12,2 C 99 % 999,0 hPa 0,0 l/m 0 min 0 min 0 W/m 12,9 km/h (3 Bft) 97,87 %
01.08.2023 05:06 15,6 C 15,0 C 12,2 C 99 % 999,1 hPa 0,0 l/m 0 min 0 min 0 W/m 19,3 km/h (3 Bft) 100,00 %
01.08.2023 05:08 15,6 C 15,0 C 12,2 C 99 % 999,1 hPa 0,0 l/m 0 min 0 min 0 W/m 19,3 km/h (3 Bft) 100,00 %
01.08.2023 05:10 15,6 C 14,4 C 12,2 C 99 % 999,1 hPa 0,0 l/m 0 min 0 min 0 W/m 12,9 km/h (3 Bft) 100,00 %
01.08.2023 05:12 15,6 C 14,4 C 11,7 C 99 % 999,1 hPa 0,0 l/m 0 min 0 min 0 W/m 16,1 km/h (3 Bft) 100,00 %
01.08.2023 05:14 15,6 C 14,4 C 12,2 C 99 % 999,2 hPa 0,0 l/m 0 min 0 min 0 W/m 19,3 km/h (3 Bft) 95,74 %
01.08.2023 05:16 15,6 C 14,4 C 12,2 C 99 % 999,1 hPa 0,0 l/m 0 min 0 min 0 W/m 12,9 km/h (3 Bft) 100,00 %
01.08.2023 05:18 15,6 C 14,4 C 12,2 C 99 % 999,1 hPa 0,0 l/m 0 min 0 min 0 W/m 6,4 km/h (2 Bft) 100,00 %
01.08.2023 05:20 15,5 C 14,4 C 12,2 C 99 % 999,2 hPa 0,0 l/m 0 min 0 min 0 W/m 12,9 km/h (3 Bft) 100,00 %
01.08.2023 05:22 15,5 C 14,4 C 12,2 C 99 % 999,2 hPa 0,0 l/m 0 min 0 min 0 W/m 19,3 km/h (3 Bft) 97,83 %
01.08.2023 05:24 15,5 C 14,4 C 12,2 C 99 % 999,2 hPa 0,0 l/m 0 min 0 min 0 W/m 9,7 km/h (2 Bft) 97,87 %
01.08.2023 05:26 15,4 C 14,4 C 11,7 C 99 % 999,2 hPa 0,0 l/m 0 min 0 min 0 W/m 12,9 km/h (3 Bft) 95,74 %
01.08.2023 05:28 15,4 C 14,4 C 11,7 C 99 % 999,3 hPa 0,0 l/m 0 min 0 min 0 W/m 16,1 km/h (3 Bft) 97,87 %
01.08.2023 05:30 15,4 C 14,4 C 11,7 C 99 % 999,3 hPa 0,0 l/m 0 min 0 min 0 W/m 12,9 km/h (3 Bft) 95,74 %
01.08.2023 05:32 15,4 C 14,4 C 11,7 C 99 % 999,3 hPa 0,0 l/m 0 min 0 min 0 W/m 9,7 km/h (2 Bft) 95,74 %
01.08.2023 05:34 15,4 C 14,4 C 11,7 C 99 % 999,4 hPa 0,0 l/m 0 min 0 min 0 W/m 9,7 km/h (2 Bft) 97,83 %
01.08.2023 05:36 15,4 C 14,4 C 11,7 C 99 % 999,4 hPa 0,0 l/m 0 min 0 min 0 W/m 9,7 km/h (2 Bft) 95,74 %
01.08.2023 05:38 15,4 C 14,4 C 11,7 C 99 % 999,4 hPa 0,0 l/m 0 min 0 min 0 W/m 9,7 km/h (2 Bft) 95,74 %
01.08.2023 05:40 15,4 C 14,4 C 11,7 C 99 % 999,4 hPa 0,0 l/m 0 min 0 min 0 W/m 9,7 km/h (2 Bft) 95,74 %
01.08.2023 05:42 15,4 C 14,4 C 11,7 C 99 % 999,4 hPa 0,0 l/m 0 min 0 min 0 W/m 9,7 km/h (2 Bft) 95,74 %
01.08.2023 05:44 15,4 C 14,4 C 11,7 C 99 % 999,4 hPa 0,0 l/m 0 min 0 min 0 W/m 6,4 km/h (2 Bft) 95,74 %
01.08.2023 05:46 15,4 C 14,4 C 12,2 C 99 % 999,4 hPa 0,0 l/m 0 min 0 min 0 W/m 6,4 km/h (2 Bft) 93,62 %
01.08.2023 05:48 15,4 C 14,4 C 11,7 C 99 % 999,4 hPa 0,0 l/m 0 min 0 min 0 W/m 6,4 km/h (2 Bft) 91,49 %
01.08.2023 05:50 15,3 C 14,4 C 11,7 C 99 % 999,4 hPa 0,0 l/m 0 min 0 min 0 W/m 12,9 km/h (3 Bft) 95,65 %
01.08.2023 05:52 15,3 C 14,4 C 11,7 C 99 % 999,4 hPa 0,0 l/m 0 min 0 min 0 W/m 6,4 km/h (2 Bft) 95,74 %
01.08.2023 05:54 15,3 C 14,4 C 11,7 C 99 % 999,4 hPa 0,0 l/m 0 min 0 min 0 W/m 12,9 km/h (3 Bft) 95,74 %
01.08.2023 05:56 15,3 C 14,4 C 11,7 C 99 % 999,5 hPa 0,0 l/m 0 min 0 min 0 W/m 12,9 km/h (3 Bft) 93,62 %
01.08.2023 05:58 15,3 C 14,4 C 11,7 C 99 % 999,5 hPa 0,0 l/m 0 min 0 min 0 W/m 16,1 km/h (3 Bft) 95,74 %
01.08.2023 06:00 15,3 C 14,4 C 11,7 C 99 % 999,5 hPa 0,0 l/m 0 min 0 min 0 W/m 12,9 km/h (3 Bft) 93,62 %
01.08.2023 06:02 15,3 C 14,4 C 11,7 C 99 % 999,5 hPa 0,0 l/m 0 min 0 min 0 W/m 9,7 km/h (2 Bft) 95,74 %
01.08.2023 06:04 15,3 C 14,4 C 11,7 C 99 % 999,5 hPa 0,0 l/m 0 min 0 min 0 W/m 6,4 km/h (2 Bft) 95,35 %
01.08.2023 06:08 15,3 C 14,4 C 11,7 C 99 % 999,6 hPa 0,0 l/m 0 min 0 min 0 W/m 19,3 km/h (3 Bft) 94,38 %
01.08.2023 06:10 15,2 C 14,4 C 11,7 C 99 % 999,6 hPa 0,0 l/m 0 min 0 min 0 W/m 19,3 km/h (3 Bft) 93,62 %
01.08.2023 06:12 15,2 C 14,4 C 11,7 C 99 % 999,5 hPa 0,0 l/m 0 min 0 min 4 W/m 6,4 km/h (2 Bft) 97,87 %
01.08.2023 06:14 15,2 C 14,4 C 11,7 C 99 % 999,5 hPa 0,0 l/m 0 min 0 min 5 W/m 6,4 km/h (2 Bft) 97,87 %
01.08.2023 06:16 15,2 C 14,4 C 11,7 C 99 % 999,5 hPa 0,0 l/m 0 min 0 min 5 W/m 6,4 km/h (2 Bft) 93,62 %
01.08.2023 06:18 15,2 C 14,4 C 11,7 C 99 % 999,6 hPa 0,0 l/m 0 min 0 min 5 W/m 16,1 km/h (3 Bft) 95,65 %
01.08.2023 06:20 15,2 C 14,4 C 11,7 C 99 % 999,5 hPa 0,0 l/m 0 min 0 min 7 W/m 6,4 km/h (2 Bft) 95,74 %
01.08.2023 06:22 15,2 C 14,4 C 11,7 C 99 % 999,6 hPa 0,0 l/m 0 min 0 min 7 W/m 12,9 km/h (3 Bft) 95,74 %
01.08.2023 06:24 15,2 C 14,4 C 11,7 C 99 % 999,4 hPa 0,0 l/m 0 min 0 min 7 W/m 16,1 km/h (3 Bft) 95,74 %
01.08.2023 06:26 15,2 C 14,4 C 11,7 C 99 % 999,5 hPa 0,0 l/m 0 min 0 min 7 W/m 12,9 km/h (3 Bft) 93,62 %
01.08.2023 06:28 15,2 C 14,4 C 11,7 C 99 % 999,4 hPa 0,0 l/m 0 min 0 min 7 W/m 6,4 km/h (2 Bft) 97,87 %
01.08.2023 06:30 15,2 C 14,4 C 11,7 C 99 % 999,3 hPa 0,0 l/m 0 min 0 min 7 W/m 12,9 km/h (3 Bft) 97,83 %
01.08.2023 06:32 15,2 C 14,4 C 11,7 C 99 % 999,4 hPa 0,0 l/m 0 min 0 min 7 W/m 6,4 km/h (2 Bft) 97,87 %
01.08.2023 06:34 15,2 C 14,4 C 11,7 C 99 % 999,4 hPa 0,0 l/m 0 min 0 min 7 W/m 6,4 km/h (2 Bft) 95,74 %
01.08.2023 06:36 15,2 C 14,4 C 11,7 C 99 % 999,4 hPa 0,0 l/m 0 min 0 min 7 W/m 6,4 km/h (2 Bft) 97,87 %
01.08.2023 06:38 15,1 C 14,4 C 11,7 C 99 % 999,4 hPa 0,0 l/m 0 min 0 min 7 W/m 16,1 km/h (3 Bft) 97,87 %
01.08.2023 06:40 15,2 C 14,4 C 11,7 C 99 % 999,3 hPa 0,0 l/m 0 min 0 min 7 W/m 12,9 km/h (3 Bft) 97,87 %
01.08.2023 06:42 15,1 C 14,4 C 11,7 C 99 % 999,3 hPa 0,0 l/m 0 min 0 min 7 W/m 12,9 km/h (3 Bft) 95,74 %
01.08.2023 06:44 15,1 C 14,4 C 11,7 C 99 % 999,4 hPa 0,0 l/m 0 min 0 min 7 W/m 9,7 km/h (2 Bft) 93,48 %
01.08.2023 06:46 15,1 C 14,4 C 11,7 C 99 % 999,4 hPa 0,0 l/m 0 min 0 min 9 W/m 16,1 km/h (3 Bft) 97,87 %
01.08.2023 06:48 15,1 C 14,4 C 11,7 C 99 % 999,4 hPa 0,0 l/m 0 min 0 min 9 W/m 12,9 km/h (3 Bft) 97,87 %
01.08.2023 06:50 15,1 C 14,4 C 11,7 C 99 % 999,4 hPa 0,0 l/m 0 min 0 min 9 W/m 12,9 km/h (3 Bft) 95,74 %
01.08.2023 06:52 15,1 C 14,4 C 11,7 C 99 % 999,5 hPa 0,0 l/m 0 min 0 min 9 W/m 16,1 km/h (3 Bft) 97,87 %
01.08.2023 06:54 15,1 C 14,4 C 11,7 C 99 % 999,5 hPa 0,0 l/m 0 min 0 min 11 W/m 12,9 km/h (3 Bft) 97,87 %
01.08.2023 06:56 15,1 C 14,4 C 11,7 C 99 % 999,4 hPa 0,0 l/m 0 min 0 min 11 W/m 12,9 km/h (3 Bft) 100,00 %
01.08.2023 06:58 15,1 C 14,4 C 11,7 C 99 % 999,5 hPa 0,0 l/m 0 min 0 min 11 W/m 12,9 km/h (3 Bft) 97,83 %
01.08.2023 07:00 15,1 C 14,4 C 11,7 C 99 % 999,5 hPa 0,0 l/m 0 min 0 min 12 W/m 12,9 km/h (3 Bft) 100,00 %
01.08.2023 07:02 15,1 C 14,4 C 11,7 C 99 % 999,5 hPa 0,0 l/m 0 min 0 min 13 W/m 6,4 km/h (2 Bft) 95,74 %
01.08.2023 07:04 15,1 C 14,4 C 11,7 C 99 % 999,6 hPa 0,0 l/m 0 min 0 min 16 W/m 9,7 km/h (2 Bft) 100,00 %
01.08.2023 07:06 15,1 C 14,4 C 11,7 C 99 % 999,6 hPa 0,0 l/m 0 min 0 min 17 W/m 6,4 km/h (2 Bft) 98,28 %
01.08.2023 07:08 15,1 C 14,4 C 11,7 C 99 % 999,6 hPa 0,0 l/m 0 min 0 min 23 W/m 16,1 km/h (3 Bft) 100,00 %
01.08.2023 07:10 15,1 C 14,4 C 11,7 C 99 % 999,6 hPa 0,0 l/m 0 min 0 min 33 W/m 6,4 km/h (2 Bft) 95,65 %
01.08.2023 07:12 15,1 C 14,4 C 11,7 C 99 % 999,7 hPa 0,0 l/m 0 min 0 min 54 W/m 6,4 km/h (2 Bft) 100,00 %
01.08.2023 07:14 15,1 C 14,4 C 11,7 C 99 % 999,7 hPa 0,0 l/m 0 min 0 min 57 W/m 6,4 km/h (2 Bft) 100,00 %
01.08.2023 07:16 15,2 C 14,4 C 11,7 C 99 % 999,6 hPa 0,0 l/m 0 min 0 min 41 W/m 12,9 km/h (3 Bft) 97,87 %
01.08.2023 07:18 15,2 C 14,4 C 11,7 C 99 % 999,6 hPa 0,0 l/m 0 min 0 min 32 W/m 12,9 km/h (3 Bft) 100,00 %
01.08.2023 07:20 15,2 C 14,4 C 11,7 C 99 % 999,7 hPa 0,0 l/m 0 min 0 min 30 W/m 6,4 km/h (2 Bft) 100,00 %
01.08.2023 07:22 15,2 C 14,4 C 11,7 C 99 % 999,7 hPa 0,0 l/m 0 min 0 min 23 W/m 12,9 km/h (3 Bft) 100,00 %
01.08.2023 07:24 15,3 C 14,4 C 11,7 C 99 % 999,7 hPa 0,0 l/m 0 min 0 min 26 W/m 12,9 km/h (3 Bft) 100,00 %
01.08.2023 07:26 15,3 C 14,4 C 11,7 C 99 % 999,7 hPa 0,0 l/m 0 min 0 min 34 W/m 16,1 km/h (3 Bft) 97,87 %
01.08.2023 07:28 15,3 C 15,0 C 11,7 C 99 % 999,8 hPa 0,0 l/m 0 min 0 min 45 W/m 12,9 km/h (3 Bft) 100,00 %
01.08.2023 07:30 15,3 C 15,0 C 11,7 C 99 % 999,8 hPa 0,0 l/m 0 min 0 min 53 W/m 12,9 km/h (3 Bft) 97,87 %
01.08.2023 07:32 15,3 C 15,0 C 11,7 C 99 % 999,8 hPa 0,0 l/m 0 min 0 min 39 W/m 12,9 km/h (3 Bft) 100,00 %
01.08.2023 07:34 15,3 C 15,0 C 11,7 C 99 % 999,8 hPa 0,0 l/m 0 min 0 min 28 W/m 6,4 km/h (2 Bft) 100,00 %
01.08.2023 07:36 15,3 C 15,0 C 11,7 C 99 % 999,9 hPa 0,0 l/m 0 min 0 min 28 W/m 12,9 km/h (3 Bft) 100,00 %
01.08.2023 07:38 15,3 C 15,0 C 11,7 C 99 % 999,9 hPa 0,0 l/m 0 min 0 min 23 W/m 6,4 km/h (2 Bft) 100,00 %
01.08.2023 07:40 15,3 C 15,0 C 11,7 C 99 % 1000,0 hPa 0,0 l/m 0 min 0 min 21 W/m 12,9 km/h (3 Bft) 100,00 %
01.08.2023 07:42 15,4 C 15,0 C 11,7 C 99 % 999,9 hPa 0,0 l/m 0 min 0 min 12 W/m 6,4 km/h (2 Bft) 100,00 %
01.08.2023 07:44 15,3 C 15,0 C 11,7 C 99 % 1000,0 hPa 0,0 l/m 0 min 0 min 14 W/m 12,9 km/h (3 Bft) 100,00 %
01.08.2023 07:46 15,3 C 15,0 C 11,7 C 98 % 1000,0 hPa 0,0 l/m 0 min 0 min 24 W/m 6,4 km/h (2 Bft) 100,00 %
01.08.2023 07:48 15,3 C 15,0 C 11,7 C 98 % 1000,0 hPa 0,0 l/m 0 min 0 min 19 W/m 9,7 km/h (2 Bft) 100,00 %
01.08.2023 07:50 15,3 C 15,0 C 11,7 C 98 % 1000,0 hPa 0,0 l/m 0 min 0 min 17 W/m 9,7 km/h (2 Bft) 97,83 %
01.08.2023 07:52 15,3 C 15,0 C 11,7 C 98 % 1000,0 hPa 0,0 l/m 0 min 0 min 20 W/m 6,4 km/h (2 Bft) 100,00 %
01.08.2023 07:54 15,3 C 15,0 C 11,7 C 98 % 1000,0 hPa 0,0 l/m 0 min 0 min 26 W/m 16,1 km/h (3 Bft) 100,00 %
01.08.2023 07:56 15,3 C 15,0 C 11,7 C 98 % 1000,0 hPa 0,0 l/m 0 min 0 min 28 W/m 16,1 km/h (3 Bft) 97,87 %
01.08.2023 07:58 15,3 C 15,0 C 11,7 C 99 % 1000,0 hPa 0,0 l/m 0 min 0 min 35 W/m 12,9 km/h (3 Bft) 100,00 %
01.08.2023 08:00 15,3 C 15,0 C 11,7 C 99 % 1000,0 hPa 0,0 l/m 0 min 0 min 73 W/m 9,7 km/h (2 Bft) 97,87 %
01.08.2023 08:02 15,3 C 15,0 C 11,7 C 98 % 1000,0 hPa 0,0 l/m 0 min 0 min 53 W/m 16,1 km/h (3 Bft) 97,83 %
01.08.2023 08:04 15,3 C 15,0 C 11,7 C 99 % 1000,0 hPa 0,0 l/m 0 min 0 min 44 W/m 12,9 km/h (3 Bft) 100,00 %
01.08.2023 08:06 15,3 C 15,0 C 11,7 C 99 % 1000,0 hPa 0,0 l/m 0 min 0 min 39 W/m 16,1 km/h (3 Bft) 97,87 %
01.08.2023 08:08 15,3 C 15,0 C 11,7 C 99 % 1000,0 hPa 0,0 l/m 0 min 0 min 31 W/m 16,1 km/h (3 Bft) 97,87 %
01.08.2023 08:10 15,3 C 15,0 C 11,7 C 98 % 1000,0 hPa 0,0 l/m 0 min 0 min 35 W/m 12,9 km/h (3 Bft) 95,74 %
01.08.2023 08:12 15,3 C 15,0 C 11,7 C 98 % 1000,0 hPa 0,0 l/m 0 min 0 min 55 W/m 12,9 km/h (3 Bft) 95,74 %
01.08.2023 08:14 15,3 C 15,0 C 11,7 C 98 % 1000,0 hPa 0,0 l/m 0 min 0 min 67 W/m 16,1 km/h (3 Bft) 95,65 %
01.08.2023 08:16 15,3 C 15,0 C 11,7 C 98 % 1000,0 hPa 0,0 l/m 0 min 0 min 102 W/m 16,1 km/h (3 Bft) 95,74 %
01.08.2023 08:18 15,3 C 15,6 C 11,7 C 98 % 1000,0 hPa 0,0 l/m 0 min 0 min 135 W/m 12,9 km/h (3 Bft) 93,62 %
01.08.2023 08:20 15,4 C 15,6 C 11,7 C 98 % 1000,0 hPa 0,0 l/m 0 min 0 min 92 W/m 9,7 km/h (2 Bft) 95,74 %
01.08.2023 08:22 15,4 C 15,6 C 11,7 C 98 % 1000,1 hPa 0,0 l/m 0 min 0 min 81 W/m 16,1 km/h (3 Bft) 93,62 %
01.08.2023 08:24 15,4 C 15,6 C 11,7 C 98 % 1000,0 hPa 0,0 l/m 0 min 0 min 72 W/m 3,2 km/h (1 Bft) 93,62 %
01.08.2023 08:26 15,5 C 15,6 C 11,7 C 98 % 1000,0 hPa 0,0 l/m 0 min 0 min 84 W/m 3,2 km/h (1 Bft) 95,65 %
01.08.2023 08:28 15,5 C 15,6 C 12,2 C 98 % 1000,1 hPa 0,0 l/m 0 min 0 min 104 W/m 12,9 km/h (3 Bft) 95,74 %
01.08.2023 08:30 15,6 C 15,6 C 12,2 C 98 % 1000,1 hPa 0,0 l/m 0 min 0 min 87 W/m 6,4 km/h (2 Bft) 95,74 %
01.08.2023 08:32 15,6 C 15,6 C 12,2 C 98 % 1000,1 hPa 0,0 l/m 0 min 0 min 70 W/m 12,9 km/h (3 Bft) 95,74 %
01.08.2023 08:34 15,6 C 15,6 C 11,7 C 98 % 1000,1 hPa 0,0 l/m 0 min 0 min 72 W/m 12,9 km/h (3 Bft) 95,74 %
01.08.2023 08:36 15,6 C 15,6 C 12,2 C 98 % 1000,1 hPa 0,0 l/m 0 min 0 min 91 W/m 19,3 km/h (3 Bft) 93,62 %
01.08.2023 08:38 15,7 C 15,6 C 12,2 C 98 % 1000,1 hPa 0,0 l/m 0 min 0 min 111 W/m 12,9 km/h (3 Bft) 95,74 %
01.08.2023 08:40 15,7 C 15,6 C 12,2 C 98 % 1000,1 hPa 0,0 l/m 0 min 0 min 145 W/m 12,9 km/h (3 Bft) 93,48 %
01.08.2023 08:42 15,7 C 15,6 C 12,2 C 98 % 1000,1 hPa 0,0 l/m 0 min 0 min 116 W/m 16,1 km/h (3 Bft) 93,62 %
01.08.2023 08:44 15,7 C 15,6 C 12,2 C 98 % 1000,1 hPa 0,0 l/m 0 min 0 min 100 W/m 19,3 km/h (3 Bft) 95,74 %
01.08.2023 08:46 15,8 C 16,1 C 12,2 C 98 % 1000,1 hPa 0,0 l/m 0 min 0 min 120 W/m 9,7 km/h (2 Bft) 91,49 %
01.08.2023 08:48 15,8 C 16,1 C 12,2 C 98 % 1000,1 hPa 0,0 l/m 0 min 0 min 166 W/m 19,3 km/h (3 Bft) 95,74 %
01.08.2023 08:50 15,8 C 16,1 C 12,2 C 98 % 1000,1 hPa 0,0 l/m 0 min 0 min 124 W/m 12,9 km/h (3 Bft) 93,62 %
01.08.2023 08:52 15,9 C 16,1 C 12,2 C 98 % 1000,1 hPa 0,0 l/m 0 min 0 min 120 W/m 9,7 km/h (2 Bft) 93,62 %
01.08.2023 08:54 15,9 C 16,1 C 12,2 C 97 % 1000,1 hPa 0,0 l/m 0 min 0 min 111 W/m 25,7 km/h (4 Bft) 95,65 %
01.08.2023 08:56 15,9 C 16,1 C 12,2 C 97 % 1000,1 hPa 0,0 l/m 0 min 0 min 144 W/m 12,9 km/h (3 Bft) 97,87 %
01.08.2023 08:58 15,9 C 16,7 C 12,2 C 97 % 1000,1 hPa 0,0 l/m 0 min 0 min 193 W/m 6,4 km/h (2 Bft) 97,87 %
01.08.2023 09:00 16,1 C 16,7 C 12,2 C 97 % 1000,2 hPa 0,0 l/m 0 min 0 min 190 W/m 12,9 km/h (3 Bft) 95,74 %
01.08.2023 09:02 16,1 C 16,7 C 12,2 C 97 % 1000,2 hPa 0,0 l/m 0 min 0 min 149 W/m 12,9 km/h (3 Bft) 95,74 %
01.08.2023 09:04 16,1 C 16,1 C 12,2 C 97 % 1000,2 hPa 0,0 l/m 0 min 0 min 131 W/m 16,1 km/h (3 Bft) 98,00 %
01.08.2023 09:06 16,2 C 16,1 C 12,2 C 97 % 1000,2 hPa 0,0 l/m 0 min 0 min 150 W/m 19,3 km/h (3 Bft) 97,83 %
01.08.2023 09:08 16,2 C 16,1 C 12,2 C 97 % 1000,2 hPa 0,0 l/m 0 min 0 min 104 W/m 16,1 km/h (3 Bft) 97,87 %
01.08.2023 09:10 16,2 C 16,1 C 12,2 C 97 % 1000,2 hPa 0,0 l/m 0 min 0 min 101 W/m 16,1 km/h (3 Bft) 97,87 %
01.08.2023 09:12 16,2 C 16,1 C 12,2 C 96 % 1000,3 hPa 0,0 l/m 0 min 0 min 79 W/m 12,9 km/h (3 Bft) 97,87 %
01.08.2023 09:14 16,2 C 16,1 C 12,2 C 96 % 1000,2 hPa 0,0 l/m 0 min 0 min 62 W/m 19,3 km/h (3 Bft) 97,87 %
01.08.2023 09:16 16,2 C 16,1 C 12,2 C 96 % 1000,3 hPa 0,0 l/m 0 min 0 min 58 W/m 12,9 km/h (3 Bft) 95,74 %
01.08.2023 09:18 16,2 C 16,1 C 12,2 C 96 % 1000,3 hPa 0,0 l/m 0 min 0 min 87 W/m 22,5 km/h (4 Bft) 97,87 %
01.08.2023 09:20 16,2 C 16,1 C 12,2 C 96 % 1000,3 hPa 0,0 l/m 0 min 0 min 147 W/m 12,9 km/h (3 Bft) 97,83 %
01.08.2023 09:22 16,2 C 16,1 C 12,2 C 96 % 1000,3 hPa 0,0 l/m 0 min 0 min 168 W/m 22,5 km/h (4 Bft) 97,87 %
01.08.2023 09:24 16,2 C 16,1 C 12,2 C 95 % 1000,3 hPa 0,0 l/m 0 min 0 min 138 W/m 12,9 km/h (3 Bft) 97,87 %
01.08.2023 09:26 16,3 C 16,1 C 12,2 C 95 % 1000,3 hPa 0,0 l/m 0 min 0 min 169 W/m 19,3 km/h (3 Bft) 100,00 %
01.08.2023 09:28 16,3 C 16,1 C 12,2 C 95 % 1000,4 hPa 0,0 l/m 0 min 0 min 153 W/m 16,1 km/h (3 Bft) 100,00 %
01.08.2023 09:30 16,3 C 16,1 C 12,2 C 95 % 1000,4 hPa 0,0 l/m 0 min 0 min 140 W/m 16,1 km/h (3 Bft) 97,87 %
01.08.2023 09:32 16,4 C 16,7 C 12,2 C 95 % 1000,5 hPa 0,0 l/m 0 min 0 min 190 W/m 16,1 km/h (3 Bft) 100,00 %
01.08.2023 09:34 16,4 C 16,7 C 12,2 C 95 % 1000,4 hPa 0,0 l/m 2 min 0 min 272 W/m 6,4 km/h (2 Bft) 100,00 %
01.08.2023 09:36 16,5 C 17,2 C 12,2 C 95 % 1000,4 hPa 0,0 l/m 2 min 0 min 318 W/m 12,9 km/h (3 Bft) 97,87 %
01.08.2023 09:38 16,6 C 17,8 C 12,2 C 95 % 1000,4 hPa 0,0 l/m 2 min 0 min 318 W/m 12,9 km/h (3 Bft) 100,00 %
01.08.2023 09:40 16,7 C 17,8 C 12,8 C 94 % 1000,4 hPa 0,0 l/m 0 min 0 min 197 W/m 16,1 km/h (3 Bft) 100,00 %
01.08.2023 09:42 16,7 C 17,8 C 12,2 C 94 % 1000,5 hPa 0,0 l/m 0 min 0 min 234 W/m 16,1 km/h (3 Bft) 100,00 %
01.08.2023 09:44 16,8 C 17,8 C 12,8 C 94 % 1000,5 hPa 0,0 l/m 0 min 0 min 230 W/m 12,9 km/h (3 Bft) 100,00 %
01.08.2023 09:46 16,8 C 17,8 C 12,8 C 94 % 1000,5 hPa 0,0 l/m 0 min 0 min 209 W/m 6,4 km/h (2 Bft) 100,00 %
01.08.2023 09:48 16,9 C 18,3 C 12,8 C 93 % 1000,5 hPa 0,0 l/m 2 min 0 min 302 W/m 16,1 km/h (3 Bft) 100,00 %
01.08.2023 09:50 17,0 C 17,8 C 12,2 C 93 % 1000,5 hPa 0,0 l/m 0 min 0 min 213 W/m 19,3 km/h (3 Bft) 100,00 %
01.08.2023 09:52 17,0 C 17,8 C 12,2 C 92 % 1000,5 hPa 0,0 l/m 0 min 0 min 225 W/m 16,1 km/h (3 Bft) 97,87 %
01.08.2023 09:54 17,1 C 17,2 C 12,2 C 92 % 1000,4 hPa 0,0 l/m 0 min 0 min 233 W/m 16,1 km/h (3 Bft) 100,00 %
01.08.2023 09:56 17,1 C 17,2 C 12,8 C 92 % 1000,4 hPa 0,0 l/m 2 min 0 min 290 W/m 16,1 km/h (3 Bft) 100,00 %
01.08.2023 09:58 17,1 C 17,2 C 12,2 C 92 % 1000,4 hPa 0,0 l/m 0 min 0 min 185 W/m 12,9 km/h (3 Bft) 100,00 %
01.08.2023 10:00 17,1 C 17,2 C 12,2 C 91 % 1000,5 hPa 0,0 l/m 0 min 0 min 146 W/m 16,1 km/h (3 Bft) 100,00 %
01.08.2023 10:02 17,1 C 17,2 C 12,2 C 91 % 1000,4 hPa 0,0 l/m 0 min 0 min 139 W/m 19,3 km/h (3 Bft) 97,87 %
01.08.2023 10:04 17,1 C 16,7 C 12,2 C 91 % 1000,5 hPa 0,0 l/m 0 min 0 min 118 W/m 12,9 km/h (3 Bft) 97,96 %
01.08.2023 10:06 17,1 C 16,7 C 12,2 C 91 % 1000,5 hPa 0,0 l/m 0 min 0 min 162 W/m 12,9 km/h (3 Bft) 100,00 %
01.08.2023 10:08 17,1 C 17,2 C 12,2 C 91 % 1000,5 hPa 0,0 l/m 2 min 0 min 334 W/m 12,9 km/h (3 Bft) 100,00 %
01.08.2023 10:10 17,2 C 17,2 C 12,8 C 91 % 1000,5 hPa 0,0 l/m 2 min 0 min 295 W/m 16,1 km/h (3 Bft) 95,74 %
01.08.2023 10:12 17,2 C 17,2 C 12,2 C 91 % 1000,6 hPa 0,0 l/m 0 min 0 min 211 W/m 12,9 km/h (3 Bft) 95,74 %
01.08.2023 10:14 17,2 C 17,2 C 12,2 C 91 % 1000,6 hPa 0,0 l/m 0 min 0 min 109 W/m 9,7 km/h (2 Bft) 97,83 %
01.08.2023 10:16 17,2 C 17,2 C 12,2 C 91 % 1000,6 hPa 0,0 l/m 0 min 0 min 112 W/m 12,9 km/h (3 Bft) 97,87 %
01.08.2023 10:18 17,2 C 16,7 C 12,8 C 91 % 1000,6 hPa 0,0 l/m 0 min 0 min 138 W/m 12,9 km/h (3 Bft) 95,74 %
01.08.2023 10:20 17,2 C 17,2 C 12,8 C 91 % 1000,6 hPa 0,0 l/m 0 min 0 min 146 W/m 6,4 km/h (2 Bft) 95,74 %
01.08.2023 10:22 17,2 C 16,7 C 13,3 C 91 % 1000,6 hPa 0,0 l/m 0 min 0 min 143 W/m 12,9 km/h (3 Bft) 97,87 %
01.08.2023 10:24 17,2 C 17,2 C 13,3 C 91 % 1000,6 hPa 0,0 l/m 0 min 0 min 179 W/m 16,1 km/h (3 Bft) 95,74 %
01.08.2023 10:26 17,2 C 16,7 C 13,3 C 91 % 1000,6 hPa 0,0 l/m 0 min 0 min 116 W/m 12,9 km/h (3 Bft) 97,83 %
01.08.2023 10:28 17,2 C 16,7 C 13,3 C 90 % 1000,7 hPa 0,0 l/m 0 min 0 min 118 W/m 29,0 km/h (5 Bft) 97,87 %
01.08.2023 10:30 17,1 C 16,7 C 13,3 C 90 % 1000,6 hPa 0,0 l/m 0 min 0 min 109 W/m 16,1 km/h (3 Bft) 97,87 %
01.08.2023 10:32 17,1 C 16,7 C 13,3 C 90 % 1000,7 hPa 0,0 l/m 0 min 0 min 124 W/m 12,9 km/h (3 Bft) 97,87 %
01.08.2023 10:34 17,1 C 16,7 C 13,3 C 90 % 1000,7 hPa 0,0 l/m 0 min 0 min 166 W/m 16,1 km/h (3 Bft) 97,87 %
01.08.2023 10:36 17,1 C 16,7 C 13,9 C 90 % 1000,7 hPa 0,0 l/m 0 min 0 min 180 W/m 22,5 km/h (4 Bft) 97,87 %
01.08.2023 10:38 17,1 C 17,2 C 13,9 C 90 % 1000,7 hPa 0,0 l/m 0 min 0 min 185 W/m 16,1 km/h (3 Bft) 97,87 %
01.08.2023 10:40 17,1 C 17,2 C 13,9 C 90 % 1000,7 hPa 0,0 l/m 0 min 0 min 219 W/m 16,1 km/h (3 Bft) 97,83 %
01.08.2023 10:42 17,2 C 17,8 C 13,9 C 90 % 1000,7 hPa 0,0 l/m 0 min 0 min 288 W/m 16,1 km/h (3 Bft) 97,87 %
01.08.2023 10:44 17,2 C 17,8 C 13,9 C 90 % 1000,6 hPa 0,0 l/m 0 min 0 min 267 W/m 16,1 km/h (3 Bft) 100,00 %
01.08.2023 10:46 17,2 C 17,8 C 13,9 C 90 % 1000,6 hPa 0,0 l/m 0 min 0 min 261 W/m 12,9 km/h (3 Bft) 100,00 %
01.08.2023 10:48 17,3 C 18,3 C 14,4 C 89 % 1000,6 hPa 0,0 l/m 2 min 0 min 481 W/m 12,9 km/h (3 Bft) 100,00 %
01.08.2023 10:50 17,5 C 18,3 C 14,4 C 90 % 1000,7 hPa 0,0 l/m 2 min 0 min 731 W/m 16,1 km/h (3 Bft) 100,00 %
01.08.2023 10:52 17,7 C 18,9 C 15,0 C 89 % 1000,6 hPa 0,0 l/m 2 min 0 min 753 W/m 16,1 km/h (3 Bft) 100,00 %
01.08.2023 10:54 17,9 C 19,4 C 15,6 C 89 % 1000,6 hPa 0,0 l/m 2 min 0 min 809 W/m 16,1 km/h (3 Bft) 95,74 %
01.08.2023 10:56 18,1 C 19,4 C 15,6 C 89 % 1000,6 hPa 0,0 l/m 2 min 0 min 777 W/m 16,1 km/h (3 Bft) 97,87 %
01.08.2023 10:58 18,2 C 19,4 C 16,1 C 88 % 1000,7 hPa 0,0 l/m 2 min 0 min 899 W/m 22,5 km/h (4 Bft) 100,00 %
01.08.2023 11:00 18,3 C 19,4 C 16,1 C 88 % 1000,6 hPa 0,0 l/m 2 min 0 min 942 W/m 16,1 km/h (3 Bft) 100,00 %
01.08.2023 11:02 18,4 C 20,6 C 16,1 C 87 % 1000,6 hPa 0,0 l/m 2 min 0 min 941 W/m 12,9 km/h (3 Bft) 100,00 %
01.08.2023 11:04 18,6 C 20,6 C 16,1 C 87 % 1000,6 hPa 0,0 l/m 2 min 0 min 924 W/m 16,1 km/h (3 Bft) 97,87 %
01.08.2023 11:06 18,7 C 19,4 C 15,6 C 86 % 1000,6 hPa 0,0 l/m 2 min 0 min 357 W/m 16,1 km/h (3 Bft) 100,00 %
01.08.2023 11:08 18,6 C 18,9 C 15,6 C 86 % 1000,6 hPa 0,0 l/m 0 min 0 min 239 W/m 16,1 km/h (3 Bft) 100,00 %
01.08.2023 11:10 18,6 C 18,3 C 15,0 C 86 % 1000,6 hPa 0,0 l/m 0 min 0 min 101 W/m 16,1 km/h (3 Bft) 100,00 %
01.08.2023 11:12 18,5 C 18,3 C 13,9 C 86 % 1000,7 hPa 0,2 l/m 0 min 2 min 147 W/m 19,3 km/h (3 Bft) 100,00 %
01.08.2023 11:14 18,4 C 17,8 C 13,9 C 87 % 1000,6 hPa 0,0 l/m 0 min 2 min 200 W/m 29,0 km/h (5 Bft) 97,87 %
01.08.2023 11:16 18,2 C 17,8 C 13,3 C 87 % 1000,7 hPa 0,0 l/m 0 min 0 min 195 W/m 12,9 km/h (3 Bft) 95,74 %
01.08.2023 11:18 18,1 C 17,2 C 13,3 C 87 % 1000,6 hPa 0,0 l/m 0 min 0 min 143 W/m 22,5 km/h (4 Bft) 91,49 %
01.08.2023 11:20 18,0 C 17,2 C 13,3 C 88 % 1000,7 hPa 0,0 l/m 0 min 0 min 156 W/m 12,9 km/h (3 Bft) 95,65 %
01.08.2023 11:22 17,9 C 17,8 C 13,3 C 88 % 1000,7 hPa 0,0 l/m 0 min 0 min 186 W/m 12,9 km/h (3 Bft) 95,74 %
01.08.2023 11:24 18,0 C 18,9 C 13,9 C 89 % 1000,7 hPa 0,0 l/m 0 min 0 min 275 W/m 19,3 km/h (3 Bft) 93,62 %
01.08.2023 11:26 18,1 C 18,3 C 13,9 C 89 % 1000,6 hPa 0,0 l/m 0 min 0 min 298 W/m 19,3 km/h (3 Bft) 95,74 %
01.08.2023 11:28 18,1 C 19,4 C 14,4 C 89 % 1000,6 hPa 0,0 l/m 0 min 0 min 348 W/m 12,9 km/h (3 Bft) 95,74 %
01.08.2023 11:30 18,2 C 19,4 C 14,4 C 89 % 1000,8 hPa 0,0 l/m 0 min 0 min 348 W/m 19,3 km/h (3 Bft) 95,74 %
01.08.2023 11:32 18,3 C 20,0 C 15,0 C 88 % 1000,6 hPa 0,0 l/m 2 min 0 min 428 W/m 19,3 km/h (3 Bft) 95,74 %
01.08.2023 11:34 18,4 C 19,4 C 15,0 C 88 % 1000,7 hPa 0,0 l/m 2 min 0 min 478 W/m 16,1 km/h (3 Bft) 95,65 %
01.08.2023 11:36 18,4 C 19,4 C 15,0 C 88 % 1000,7 hPa 0,0 l/m 0 min 0 min 273 W/m 16,1 km/h (3 Bft) 93,62 %
01.08.2023 11:38 18,5 C 18,9 C 15,0 C 87 % 1000,8 hPa 0,0 l/m 0 min 0 min 278 W/m 25,7 km/h (4 Bft) 95,74 %
01.08.2023 11:40 18,5 C 18,9 C 15,0 C 86 % 1000,8 hPa 0,0 l/m 0 min 0 min 259 W/m 12,9 km/h (3 Bft) 94,29 %
01.08.2023 11:42 18,5 C 18,9 C 15,0 C 86 % 1000,7 hPa 0,0 l/m 0 min 0 min 325 W/m 19,3 km/h (3 Bft) 95,83 %
01.08.2023 11:44 18,5 C 18,9 C 15,0 C 85 % 1000,7 hPa 0,0 l/m 0 min 0 min 269 W/m 25,7 km/h (4 Bft) 95,74 %
01.08.2023 11:46 18,5 C 18,3 C 15,0 C 85 % 1000,8 hPa 0,0 l/m 0 min 0 min 156 W/m 12,9 km/h (3 Bft) 95,74 %
01.08.2023 11:48 18,5 C 18,3 C 15,0 C 85 % 1000,8 hPa 0,0 l/m 0 min 0 min 193 W/m 12,9 km/h (3 Bft) 95,74 %
01.08.2023 11:50 18,6 C 18,3 C 15,0 C 85 % 1000,8 hPa 0,0 l/m 0 min 0 min 257 W/m 19,3 km/h (3 Bft) 95,74 %
01.08.2023 11:52 18,6 C 18,9 C 15,0 C 85 % 1000,8 hPa 0,0 l/m 0 min 0 min 332 W/m 25,7 km/h (4 Bft) 95,65 %
01.08.2023 11:54 18,6 C 20,0 C 15,6 C 84 % 1000,8 hPa 0,0 l/m 2 min 0 min 440 W/m 19,3 km/h (3 Bft) 95,74 %
01.08.2023 11:56 18,8 C 20,0 C 16,1 C 84 % 1000,8 hPa 0,0 l/m 2 min 0 min 473 W/m 12,9 km/h (3 Bft) 93,62 %
01.08.2023 11:58 18,8 C 19,4 C 15,6 C 84 % 1000,7 hPa 0,0 l/m 0 min 0 min 319 W/m 16,1 km/h (3 Bft) 97,87 %
01.08.2023 12:00 18,9 C 19,4 C 15,6 C 83 % 1000,7 hPa 0,0 l/m 0 min 0 min 252 W/m 12,9 km/h (3 Bft) 97,87 %
01.08.2023 12:02 18,9 C 19,4 C 15,6 C 83 % 1000,8 hPa 0,0 l/m 0 min 0 min 262 W/m 12,9 km/h (3 Bft) 97,87 %
01.08.2023 12:04 19,0 C 20,6 C 16,1 C 83 % 1000,7 hPa 0,0 l/m 0 min 0 min 262 W/m 22,5 km/h (4 Bft) 92,86 %
01.08.2023 12:07 19,2 C 21,1 C 16,7 C 84 % 1000,7 hPa 0,0 l/m 0 min 0 min 339 W/m 9,7 km/h (2 Bft) 92,86 %
01.08.2023 12:08 19,3 C 20,6 C 16,7 C 83 % 1000,6 hPa 0,0 l/m 0 min 0 min 296 W/m 12,9 km/h (3 Bft) 96,08 %
01.08.2023 12:10 19,4 C 20,0 C 16,7 C 82 % 1000,7 hPa 0,0 l/m 0 min 0 min 380 W/m 12,9 km/h (3 Bft) 97,87 %
01.08.2023 12:12 19,4 C 19,4 C 16,1 C 82 % 1000,7 hPa 0,0 l/m 0 min 2 min 235 W/m 16,1 km/h (3 Bft) 97,87 %
01.08.2023 12:14 19,3 C 18,9 C 15,6 C 82 % 1000,8 hPa 0,0 l/m 0 min 2 min 126 W/m 19,3 km/h (3 Bft) 95,74 %
01.08.2023 12:16 19,2 C 18,3 C 15,0 C 83 % 1000,7 hPa 0,0 l/m 0 min 2 min 119 W/m 12,9 km/h (3 Bft) 95,74 %
01.08.2023 12:18 19,1 C 18,3 C 14,4 C 83 % 1000,7 hPa 0,0 l/m 0 min 2 min 98 W/m 22,5 km/h (4 Bft) 95,65 %
01.08.2023 12:20 18,9 C 18,3 C 14,4 C 83 % 1000,8 hPa 0,0 l/m 0 min 2 min 105 W/m 12,9 km/h (3 Bft) 95,74 %
01.08.2023 12:22 18,8 C 18,3 C 14,4 C 84 % 1000,8 hPa 0,0 l/m 0 min 0 min 142 W/m 12,9 km/h (3 Bft) 95,74 %
01.08.2023 12:24 18,8 C 18,3 C 14,4 C 85 % 1000,8 hPa 0,0 l/m 0 min 2 min 240 W/m 19,3 km/h (3 Bft) 97,87 %
01.08.2023 12:26 18,8 C 18,9 C 15,0 C 85 % 1000,8 hPa 0,0 l/m 0 min 0 min 283 W/m 12,9 km/h (3 Bft) 97,87 %
01.08.2023 12:28 18,7 C 18,9 C 15,0 C 84 % 1000,8 hPa 0,0 l/m 0 min 0 min 304 W/m 25,7 km/h (4 Bft) 97,87 %
01.08.2023 12:30 18,7 C 18,9 C 15,0 C 84 % 1000,8 hPa 0,0 l/m 0 min 0 min 297 W/m 16,1 km/h (3 Bft) 97,87 %
01.08.2023 12:32 18,8 C 18,9 C 15,6 C 84 % 1000,8 hPa 0,0 l/m 0 min 0 min 267 W/m 12,9 km/h (3 Bft) 97,87 %
01.08.2023 12:34 18,8 C 18,9 C 15,6 C 84 % 1000,8 hPa 0,0 l/m 0 min 0 min 287 W/m 19,3 km/h (3 Bft) 97,83 %
01.08.2023 12:36 18,8 C 18,9 C 15,6 C 83 % 1000,8 hPa 0,0 l/m 0 min 0 min 312 W/m 38,6 km/h (5 Bft) 97,87 %
01.08.2023 12:38 18,9 C 18,9 C 15,6 C 82 % 1000,8 hPa 0,0 l/m 0 min 0 min 350 W/m 19,3 km/h (3 Bft) 93,62 %
01.08.2023 12:40 18,9 C 18,9 C 15,6 C 82 % 1000,9 hPa 0,0 l/m 0 min 0 min 306 W/m 22,5 km/h (4 Bft) 95,74 %
01.08.2023 12:42 19,0 C 18,9 C 15,6 C 82 % 1000,9 hPa 0,0 l/m 0 min 0 min 189 W/m 29,0 km/h (5 Bft) 97,87 %
01.08.2023 12:44 19,0 C 18,9 C 15,6 C 82 % 1000,9 hPa 0,0 l/m 0 min 0 min 158 W/m 9,7 km/h (2 Bft) 97,87 %
01.08.2023 12:46 19,1 C 18,9 C 15,6 C 82 % 1000,9 hPa 0,0 l/m 0 min 0 min 217 W/m 12,9 km/h (3 Bft) 97,83 %
01.08.2023 12:48 19,1 C 19,4 C 15,6 C 82 % 1000,9 hPa 0,0 l/m 0 min 0 min 254 W/m 25,7 km/h (4 Bft) 97,87 %
01.08.2023 12:50 19,1 C 19,4 C 15,6 C 82 % 1000,9 hPa 0,0 l/m 0 min 0 min 315 W/m 22,5 km/h (4 Bft) 97,87 %
01.08.2023 12:52 19,1 C 20,0 C 15,6 C 81 % 1000,9 hPa 0,0 l/m 0 min 0 min 225 W/m 19,3 km/h (3 Bft) 97,87 %
01.08.2023 12:54 19,2 C 21,7 C 15,6 C 81 % 1000,9 hPa 0,0 l/m 0 min 0 min 230 W/m 19,3 km/h (3 Bft) 97,87 %
01.08.2023 12:56 19,4 C 22,2 C 16,1 C 82 % 1000,8 hPa 0,0 l/m 2 min 0 min 872 W/m 19,3 km/h (3 Bft) 100,00 %
01.08.2023 12:58 19,6 C 22,8 C 16,7 C 82 % 1000,8 hPa 0,0 l/m 2 min 0 min 987 W/m 12,9 km/h (3 Bft) 100,00 %
01.08.2023 13:00 19,8 C 22,8 C 16,7 C 81 % 1000,9 hPa 0,0 l/m 2 min 0 min 893 W/m 19,3 km/h (3 Bft) 100,00 %
01.08.2023 13:02 20,1 C 22,2 C 16,7 C 80 % 1000,8 hPa 0,0 l/m 2 min 0 min 622 W/m 16,1 km/h (3 Bft) 100,00 %
01.08.2023 13:04 20,1 C 21,1 C 16,7 C 79 % 1000,9 hPa 0,0 l/m 0 min 0 min 233 W/m 16,1 km/h (3 Bft) 97,87 %
01.08.2023 13:06 20,1 C 20,6 C 16,1 C 78 % 1001,0 hPa 0,0 l/m 0 min 0 min 255 W/m 25,7 km/h (4 Bft) 100,00 %
01.08.2023 13:08 20,0 C 20,0 C 16,1 C 77 % 1001,1 hPa 0,0 l/m 0 min 0 min 305 W/m 19,3 km/h (3 Bft) 100,00 %
01.08.2023 13:10 19,9 C 19,4 C 16,1 C 76 % 1001,0 hPa 0,0 l/m 0 min 0 min 279 W/m 16,1 km/h (3 Bft) 100,00 %
01.08.2023 13:12 19,8 C 19,4 C 16,1 C 77 % 1001,1 hPa 0,0 l/m 0 min 0 min 226 W/m 22,5 km/h (4 Bft) 100,00 %
01.08.2023 13:14 19,7 C 19,4 C 15,6 C 77 % 1001,2 hPa 0,0 l/m 0 min 0 min 198 W/m 22,5 km/h (4 Bft) 100,00 %
01.08.2023 13:16 19,7 C 18,9 C 15,6 C 77 % 1001,2 hPa 0,0 l/m 0 min 0 min 162 W/m 16,1 km/h (3 Bft) 100,00 %
01.08.2023 13:18 19,6 C 18,9 C 15,6 C 77 % 1001,4 hPa 0,0 l/m 0 min 0 min 138 W/m 22,5 km/h (4 Bft) 100,00 %
01.08.2023 13:20 19,4 C 18,9 C 15,0 C 76 % 1001,3 hPa 0,0 l/m 0 min 0 min 137 W/m 22,5 km/h (4 Bft) 100,00 %
01.08.2023 13:22 19,2 C 18,3 C 15,0 C 76 % 1001,4 hPa 0,0 l/m 0 min 0 min 124 W/m 22,5 km/h (4 Bft) 100,00 %
01.08.2023 13:24 19,1 C 18,3 C 15,0 C 77 % 1001,5 hPa 0,0 l/m 0 min 0 min 122 W/m 25,7 km/h (4 Bft) 100,00 %
01.08.2023 13:26 18,9 C 17,8 C 14,4 C 77 % 1001,4 hPa 0,0 l/m 0 min 0 min 126 W/m 25,7 km/h (4 Bft) 100,00 %
01.08.2023 13:28 18,8 C 17,8 C 14,4 C 78 % 1001,5 hPa 0,0 l/m 0 min 0 min 122 W/m 22,5 km/h (4 Bft) 100,00 %
01.08.2023 13:30 18,6 C 17,8 C 13,9 C 80 % 1001,5 hPa 0,0 l/m 0 min 2 min 112 W/m 16,1 km/h (3 Bft) 100,00 %
01.08.2023 13:32 18,5 C 17,2 C 13,3 C 82 % 1001,5 hPa 0,0 l/m 0 min 2 min 111 W/m 12,9 km/h (3 Bft) 100,00 %
01.08.2023 13:34 18,3 C 16,7 C 12,8 C 84 % 1001,7 hPa 0,0 l/m 0 min 2 min 117 W/m 29,0 km/h (5 Bft) 100,00 %
01.08.2023 13:36 18,1 C 16,7 C 12,2 C 85 % 1001,5 hPa 0,0 l/m 0 min 2 min 124 W/m 16,1 km/h (3 Bft) 100,00 %
01.08.2023 13:38 17,9 C 16,7 C 12,2 C 86 % 1001,5 hPa 0,0 l/m 0 min 2 min 124 W/m 12,9 km/h (3 Bft) 95,74 %
01.08.2023 13:40 17,8 C 16,7 C 12,2 C 86 % 1001,6 hPa 0,0 l/m 0 min 2 min 131 W/m 16,1 km/h (3 Bft) 100,00 %
01.08.2023 13:42 17,6 C 16,7 C 12,2 C 87 % 1001,6 hPa 0,0 l/m 0 min 2 min 149 W/m 12,9 km/h (3 Bft) 100,00 %
01.08.2023 13:44 17,4 C 16,7 C 12,2 C 87 % 1001,6 hPa 0,0 l/m 0 min 2 min 178 W/m 22,5 km/h (4 Bft) 97,83 %
01.08.2023 13:46 17,3 C 17,2 C 12,2 C 87 % 1001,6 hPa 0,0 l/m 0 min 2 min 217 W/m 16,1 km/h (3 Bft) 95,74 %
01.08.2023 13:48 17,3 C 17,2 C 12,2 C 87 % 1001,6 hPa 0,0 l/m 0 min 0 min 238 W/m 16,1 km/h (3 Bft) 97,87 %
01.08.2023 13:50 17,4 C 17,2 C 12,2 C 87 % 1001,6 hPa 0,0 l/m 0 min 0 min 251 W/m 22,5 km/h (4 Bft) 97,87 %
01.08.2023 13:52 17,4 C 17,8 C 12,8 C 87 % 1001,6 hPa 0,0 l/m 0 min 0 min 251 W/m 9,7 km/h (2 Bft) 97,87 %
01.08.2023 13:54 17,5 C 17,8 C 12,8 C 87 % 1001,5 hPa 0,0 l/m 0 min 0 min 225 W/m 25,7 km/h (4 Bft) 97,87 %
01.08.2023 13:56 17,6 C 17,8 C 12,8 C 86 % 1001,6 hPa 0,0 l/m 0 min 0 min 186 W/m 12,9 km/h (3 Bft) 95,65 %
01.08.2023 13:58 17,6 C 17,8 C 13,3 C 86 % 1001,6 hPa 0,0 l/m 0 min 0 min 168 W/m 12,9 km/h (3 Bft) 97,87 %
01.08.2023 14:00 17,6 C 17,2 C 13,3 C 86 % 1001,6 hPa 0,0 l/m 0 min 0 min 159 W/m 12,9 km/h (3 Bft) 97,87 %
01.08.2023 14:02 17,6 C 17,2 C 13,9 C 86 % 1001,7 hPa 0,0 l/m 0 min 0 min 148 W/m 22,5 km/h (4 Bft) 95,74 %
01.08.2023 14:04 17,6 C 17,2 C 13,9 C 85 % 1001,7 hPa 0,0 l/m 0 min 0 min 124 W/m 32,2 km/h (5 Bft) 97,67 %
01.08.2023 14:06 17,6 C 17,2 C 13,3 C 83 % 1001,7 hPa 0,0 l/m 0 min 0 min 131 W/m 19,3 km/h (3 Bft) 96,55 %
01.08.2023 14:08 17,6 C 17,2 C 13,3 C 83 % 1001,8 hPa 0,0 l/m 0 min 0 min 167 W/m 19,3 km/h (3 Bft) 97,14 %
01.08.2023 14:10 17,5 C 17,2 C 13,3 C 83 % 1001,7 hPa 0,0 l/m 0 min 0 min 191 W/m 19,3 km/h (3 Bft) 100,00 %
01.08.2023 14:16 17,7 C 18,3 C 13,9 C 83 % 1001,7 hPa 0,0 l/m 0 min 0 min 333 W/m 19,3 km/h (3 Bft) 100,00 %
01.08.2023 14:18 17,8 C 18,3 C 13,9 C 82 % 1001,6 hPa 0,0 l/m 0 min 0 min 293 W/m 22,5 km/h (4 Bft) 94,29 %
01.08.2023 14:20 17,9 C 18,3 C 14,4 C 82 % 1001,7 hPa 0,0 l/m 0 min 0 min 285 W/m 16,1 km/h (3 Bft) 93,62 %
01.08.2023 14:22 18,1 C 18,9 C 14,4 C 82 % 1001,7 hPa 0,0 l/m 0 min 0 min 346 W/m 12,9 km/h (3 Bft) 95,74 %
01.08.2023 14:24 18,2 C 20,0 C 15,0 C 81 % 1001,6 hPa 0,0 l/m 2 min 0 min 418 W/m 22,5 km/h (4 Bft) 95,74 %
01.08.2023 14:26 18,3 C 20,6 C 15,0 C 81 % 1001,6 hPa 0,0 l/m 2 min 0 min 417 W/m 19,3 km/h (3 Bft) 95,74 %
01.08.2023 14:28 18,4 C 22,8 C 15,0 C 82 % 1001,6 hPa 0,0 l/m 2 min 0 min 417 W/m 12,9 km/h (3 Bft) 93,62 %
01.08.2023 14:30 18,7 C 23,3 C 15,0 C 82 % 1001,6 hPa 0,0 l/m 2 min 0 min 417 W/m 12,9 km/h (3 Bft) 95,74 %
01.08.2023 14:32 18,9 C 22,8 C 15,6 C 81 % 1001,6 hPa 0,0 l/m 2 min 0 min 854 W/m 16,1 km/h (3 Bft) 95,65 %
01.08.2023 14:34 19,1 C 23,3 C 15,6 C 81 % 1001,5 hPa 0,0 l/m 2 min 0 min 854 W/m 19,3 km/h (3 Bft) 97,87 %
01.08.2023 14:36 19,3 C 23,9 C 15,6 C 80 % 1001,6 hPa 0,0 l/m 2 min 0 min 910 W/m 12,9 km/h (3 Bft) 97,87 %
01.08.2023 14:38 19,5 C 23,9 C 15,6 C 80 % 1001,6 hPa 0,0 l/m 2 min 0 min 919 W/m 19,3 km/h (3 Bft) 93,62 %
01.08.2023 14:40 19,6 C 23,3 C 15,6 C 79 % 1001,5 hPa 0,0 l/m 2 min 0 min 654 W/m 16,1 km/h (3 Bft) 97,87 %
01.08.2023 14:42 19,7 C 23,3 C 15,6 C 79 % 1001,4 hPa 0,0 l/m 2 min 0 min 583 W/m 12,9 km/h (3 Bft) 97,87 %
01.08.2023 14:44 19,8 C 22,8 C 15,6 C 78 % 1001,5 hPa 0,0 l/m 2 min 0 min 631 W/m 22,5 km/h (4 Bft) 97,83 %
01.08.2023 14:46 19,9 C 23,3 C 15,6 C 78 % 1001,4 hPa 0,0 l/m 2 min 0 min 677 W/m 12,9 km/h (3 Bft) 95,74 %
01.08.2023 14:48 20,1 C 23,3 C 16,1 C 78 % 1001,4 hPa 0,0 l/m 2 min 0 min 646 W/m 9,7 km/h (2 Bft) 95,74 %
01.08.2023 14:50 20,2 C 23,9 C 16,1 C 78 % 1001,5 hPa 0,0 l/m 2 min 0 min 661 W/m 12,9 km/h (3 Bft) 95,74 %
01.08.2023 14:52 20,4 C 23,9 C 16,1 C 78 % 1001,5 hPa 0,0 l/m 2 min 0 min 665 W/m 12,9 km/h (3 Bft) 95,74 %
01.08.2023 14:54 20,5 C 23,3 C 16,1 C 76 % 1001,5 hPa 0,0 l/m 2 min 0 min 604 W/m 22,5 km/h (4 Bft) 97,87 %
01.08.2023 14:56 20,6 C 23,9 C 16,1 C 76 % 1001,5 hPa 0,0 l/m 2 min 0 min 677 W/m 19,3 km/h (3 Bft) 97,83 %
01.08.2023 14:58 20,7 C 24,4 C 16,1 C 76 % 1001,4 hPa 0,0 l/m 2 min 0 min 769 W/m 22,5 km/h (4 Bft) 97,87 %
01.08.2023 15:00 20,7 C 25,0 C 16,7 C 75 % 1001,4 hPa 0,0 l/m 2 min 0 min 887 W/m 32,2 km/h (5 Bft) 97,87 %
01.08.2023 15:02 20,8 C 24,4 C 16,1 C 74 % 1001,4 hPa 0,0 l/m 2 min 0 min 794 W/m 25,7 km/h (4 Bft) 97,87 %
01.08.2023 15:04 20,9 C 25,0 C 16,7 C 74 % 1001,4 hPa 0,0 l/m 2 min 0 min 722 W/m 22,5 km/h (4 Bft) 97,87 %
01.08.2023 15:06 20,9 C 24,4 C 16,7 C 74 % 1001,4 hPa 0,0 l/m 2 min 0 min 558 W/m 22,5 km/h (4 Bft) 95,00 %
01.08.2023 15:08 21,1 C 23,9 C 16,7 C 74 % 1001,4 hPa 0,0 l/m 2 min 0 min 526 W/m 25,7 km/h (4 Bft) 100,00 %
01.08.2023 15:10 21,1 C 23,9 C 16,7 C 74 % 1001,5 hPa 0,0 l/m 2 min 0 min 711 W/m 19,3 km/h (3 Bft) 95,74 %
01.08.2023 15:12 21,1 C 22,8 C 16,7 C 74 % 1001,6 hPa 0,0 l/m 2 min 0 min 733 W/m 25,7 km/h (4 Bft) 97,87 %
01.08.2023 15:14 21,1 C 21,7 C 16,7 C 72 % 1001,5 hPa 0,0 l/m 0 min 0 min 295 W/m 22,5 km/h (4 Bft) 97,83 %
01.08.2023 15:16 20,9 C 21,7 C 16,7 C 73 % 1001,6 hPa 0,0 l/m 0 min 0 min 300 W/m 22,5 km/h (4 Bft) 97,87 %
01.08.2023 15:18 20,9 C 21,7 C 16,7 C 72 % 1001,6 hPa 0,0 l/m 0 min 0 min 303 W/m 16,1 km/h (3 Bft) 95,74 %
01.08.2023 15:20 20,8 C 22,2 C 16,7 C 72 % 1001,5 hPa 0,0 l/m 0 min 0 min 306 W/m 25,7 km/h (4 Bft) 95,74 %
01.08.2023 15:22 20,9 C 22,8 C 16,7 C 73 % 1001,6 hPa 0,0 l/m 2 min 0 min 451 W/m 22,5 km/h (4 Bft) 97,87 %
01.08.2023 15:24 20,9 C 21,1 C 16,7 C 72 % 1001,6 hPa 0,0 l/m 2 min 0 min 451 W/m 19,3 km/h (3 Bft) 97,87 %
01.08.2023 15:26 20,8 C 20,6 C 16,1 C 73 % 1001,6 hPa 0,0 l/m 0 min 0 min 238 W/m 22,5 km/h (4 Bft) 97,87 %
01.08.2023 15:28 20,7 C 20,6 C 16,1 C 73 % 1001,6 hPa 0,0 l/m 0 min 0 min 230 W/m 16,1 km/h (3 Bft) 97,83 %
01.08.2023 15:30 20,6 C 20,0 C 16,1 C 73 % 1001,6 hPa 0,0 l/m 0 min 0 min 206 W/m 16,1 km/h (3 Bft) 95,74 %
01.08.2023 15:32 20,5 C 20,0 C 16,1 C 73 % 1001,7 hPa 0,0 l/m 0 min 0 min 182 W/m 12,9 km/h (3 Bft) 97,87 %
01.08.2023 15:34 20,4 C 20,0 C 16,1 C 73 % 1001,6 hPa 0,0 l/m 0 min 0 min 204 W/m 12,9 km/h (3 Bft) 97,87 %
01.08.2023 15:36 20,4 C 21,7 C 16,1 C 72 % 1001,6 hPa 0,0 l/m 0 min 0 min 309 W/m 25,7 km/h (4 Bft) 97,87 %
01.08.2023 15:38 20,4 C 23,9 C 16,1 C 72 % 1001,7 hPa 0,0 l/m 2 min 0 min 712 W/m 16,1 km/h (3 Bft) 97,87 %
01.08.2023 15:40 20,7 C 24,4 C 16,7 C 72 % 1001,7 hPa 0,0 l/m 2 min 0 min 860 W/m 19,3 km/h (3 Bft) 97,87 %
01.08.2023 15:42 20,9 C 24,4 C 16,7 C 72 % 1001,7 hPa 0,0 l/m 2 min 0 min 819 W/m 16,1 km/h (3 Bft) 97,83 %
01.08.2023 15:44 21,1 C 25,0 C 17,2 C 73 % 1001,8 hPa 0,0 l/m 2 min 0 min 493 W/m 16,1 km/h (3 Bft) 100,00 %
01.08.2023 15:46 21,3 C 24,4 C 17,2 C 70 % 1001,7 hPa 0,0 l/m 2 min 0 min 846 W/m 22,5 km/h (4 Bft) 100,00 %
01.08.2023 15:48 21,4 C 24,4 C 17,2 C 69 % 1001,7 hPa 0,0 l/m 2 min 0 min 855 W/m 25,7 km/h (4 Bft) 100,00 %
01.08.2023 15:50 21,4 C 23,9 C 17,2 C 69 % 1001,8 hPa 0,0 l/m 2 min 0 min 853 W/m 25,7 km/h (4 Bft) 100,00 %
01.08.2023 15:52 21,4 C 22,8 C 16,7 C 68 % 1001,7 hPa 0,0 l/m 2 min 0 min 853 W/m 19,3 km/h (3 Bft) 100,00 %
01.08.2023 15:54 21,3 C 22,8 C 16,7 C 69 % 1001,7 hPa 0,0 l/m 2 min 0 min 853 W/m 22,5 km/h (4 Bft) 100,00 %
01.08.2023 15:56 21,3 C 22,8 C 16,7 C 69 % 1001,7 hPa 0,0 l/m 2 min 0 min 853 W/m 25,7 km/h (4 Bft) 97,87 %
01.08.2023 15:58 21,3 C 23,3 C 16,7 C 69 % 1001,7 hPa 0,0 l/m 2 min 0 min 794 W/m 19,3 km/h (3 Bft) 97,87 %
01.08.2023 16:00 21,3 C 22,8 C 17,2 C 69 % 1001,6 hPa 0,0 l/m 2 min 0 min 637 W/m 16,1 km/h (3 Bft) 100,00 %
01.08.2023 16:02 21,4 C 23,3 C 17,2 C 70 % 1001,7 hPa 0,0 l/m 2 min 0 min 542 W/m 12,9 km/h (3 Bft) 97,87 %
01.08.2023 16:04 21,5 C 22,8 C 17,2 C 70 % 1001,7 hPa 0,0 l/m 2 min 0 min 401 W/m 19,3 km/h (3 Bft) 100,00 %
01.08.2023 16:06 21,5 C 22,2 C 17,2 C 70 % 1001,7 hPa 0,0 l/m 0 min 0 min 319 W/m 16,1 km/h (3 Bft) 100,00 %
01.08.2023 16:08 21,5 C 22,2 C 17,2 C 69 % 1001,7 hPa 0,0 l/m 2 min 0 min 408 W/m 25,7 km/h (4 Bft) 100,00 %
01.08.2023 16:10 21,4 C 21,7 C 17,2 C 69 % 1001,8 hPa 0,0 l/m 2 min 0 min 465 W/m 19,3 km/h (3 Bft) 97,83 %
01.08.2023 16:12 21,3 C 21,7 C 16,7 C 69 % 1001,7 hPa 0,0 l/m 0 min 0 min 286 W/m 19,3 km/h (3 Bft) 100,00 %
01.08.2023 16:14 21,2 C 21,7 C 16,7 C 70 % 1001,7 hPa 0,0 l/m 2 min 0 min 426 W/m 16,1 km/h (3 Bft) 100,00 %
01.08.2023 16:16 21,2 C 22,2 C 16,7 C 70 % 1001,8 hPa 0,0 l/m 2 min 0 min 384 W/m 22,5 km/h (4 Bft) 97,87 %
01.08.2023 16:18 21,2 C 22,2 C 16,7 C 70 % 1001,8 hPa 0,0 l/m 2 min 0 min 698 W/m 45,1 km/h (6 Bft) 97,87 %
01.08.2023 16:20 21,2 C 22,2 C 16,7 C 70 % 1001,8 hPa 0,0 l/m 2 min 0 min 413 W/m 19,3 km/h (3 Bft) 97,87 %
01.08.2023 16:22 21,2 C 22,2 C 16,7 C 70 % 1001,9 hPa 0,0 l/m 0 min 0 min 304 W/m 25,7 km/h (4 Bft) 97,83 %
01.08.2023 16:24 21,2 C 21,7 C 16,7 C 70 % 1001,8 hPa 0,0 l/m 0 min 0 min 273 W/m 19,3 km/h (3 Bft) 97,87 %
01.08.2023 16:26 21,1 C 21,1 C 16,7 C 71 % 1001,9 hPa 0,0 l/m 0 min 0 min 178 W/m 16,1 km/h (3 Bft) 95,74 %
01.08.2023 16:28 21,1 C 20,6 C 16,7 C 71 % 1001,9 hPa 0,0 l/m 0 min 0 min 172 W/m 29,0 km/h (5 Bft) 95,74 %
01.08.2023 16:30 21,1 C 21,1 C 16,7 C 72 % 1001,9 hPa 0,0 l/m 0 min 0 min 210 W/m 16,1 km/h (3 Bft) 95,74 %
01.08.2023 16:32 21,0 C 21,1 C 16,7 C 73 % 1001,9 hPa 0,0 l/m 0 min 0 min 221 W/m 12,9 km/h (3 Bft) 95,74 %
01.08.2023 16:34 21,0 C 21,1 C 16,7 C 72 % 1001,9 hPa 0,0 l/m 0 min 0 min 236 W/m 12,9 km/h (3 Bft) 93,48 %
01.08.2023 16:36 21,0 C 21,1 C 16,7 C 73 % 1001,9 hPa 0,0 l/m 0 min 0 min 225 W/m 19,3 km/h (3 Bft) 93,62 %
01.08.2023 16:38 21,0 C 21,1 C 16,7 C 72 % 1002,1 hPa 0,0 l/m 2 min 0 min 340 W/m 12,9 km/h (3 Bft) 95,74 %
01.08.2023 16:40 20,9 C 20,6 C 16,7 C 72 % 1001,9 hPa 0,0 l/m 0 min 0 min 193 W/m 19,3 km/h (3 Bft) 95,74 %
01.08.2023 16:42 20,9 C 21,1 C 16,7 C 73 % 1001,9 hPa 0,0 l/m 0 min 0 min 188 W/m 16,1 km/h (3 Bft) 95,74 %
01.08.2023 16:44 20,9 C 20,6 C 16,7 C 73 % 1002,0 hPa 0,0 l/m 0 min 0 min 203 W/m 22,5 km/h (4 Bft) 95,74 %
01.08.2023 16:46 20,9 C 21,7 C 16,7 C 73 % 1001,9 hPa 0,0 l/m 0 min 0 min 204 W/m 19,3 km/h (3 Bft) 95,74 %
01.08.2023 16:48 20,9 C 21,7 C 16,7 C 73 % 1001,9 hPa 0,0 l/m 0 min 0 min 204 W/m 22,5 km/h (4 Bft) 95,65 %
01.08.2023 16:50 21,0 C 21,7 C 16,7 C 73 % 1001,9 hPa 0,0 l/m 0 min 0 min 205 W/m 22,5 km/h (4 Bft) 93,62 %
01.08.2023 16:52 21,1 C 23,3 C 17,2 C 73 % 1001,9 hPa 0,0 l/m 2 min 0 min 523 W/m 16,1 km/h (3 Bft) 95,74 %
01.08.2023 16:54 21,3 C 23,9 C 17,2 C 72 % 1001,9 hPa 0,0 l/m 2 min 0 min 789 W/m 35,4 km/h (5 Bft) 95,74 %
01.08.2023 16:56 21,4 C 24,4 C 17,2 C 70 % 1001,9 hPa 0,0 l/m 2 min 0 min 746 W/m 25,7 km/h (4 Bft) 95,74 %
01.08.2023 16:58 21,6 C 25,0 C 17,8 C 70 % 1001,9 hPa 0,0 l/m 2 min 0 min 704 W/m 25,7 km/h (4 Bft) 95,74 %
01.08.2023 17:00 21,7 C 25,0 C 17,8 C 70 % 1001,9 hPa 0,0 l/m 2 min 0 min 668 W/m 16,1 km/h (3 Bft) 95,65 %
01.08.2023 17:02 21,8 C 24,4 C 17,8 C 69 % 1001,9 hPa 0,0 l/m 2 min 0 min 662 W/m 19,3 km/h (3 Bft) 95,74 %
01.08.2023 17:04 21,8 C 23,3 C 17,2 C 69 % 1001,9 hPa 0,0 l/m 2 min 0 min 407 W/m 19,3 km/h (3 Bft) 100,00 %
01.08.2023 17:06 21,8 C 23,3 C 17,2 C 68 % 1001,9 hPa 0,0 l/m 2 min 0 min 413 W/m 16,1 km/h (3 Bft) 100,00 %
01.08.2023 17:08 21,8 C 22,8 C 17,2 C 67 % 1001,9 hPa 0,0 l/m 2 min 0 min 445 W/m 19,3 km/h (3 Bft) 100,00 %
01.08.2023 17:10 21,7 C 21,7 C 17,2 C 67 % 1001,9 hPa 0,0 l/m 0 min 0 min 181 W/m 19,3 km/h (3 Bft) 95,65 %
01.08.2023 17:12 21,6 C 21,7 C 17,2 C 67 % 1001,9 hPa 0,0 l/m 0 min 0 min 216 W/m 12,9 km/h (3 Bft) 100,00 %
01.08.2023 17:14 21,5 C 22,8 C 17,2 C 68 % 1001,9 hPa 0,0 l/m 0 min 0 min 276 W/m 16,1 km/h (3 Bft) 100,00 %
01.08.2023 17:16 21,6 C 23,9 C 17,2 C 69 % 1001,9 hPa 0,0 l/m 2 min 0 min 720 W/m 19,3 km/h (3 Bft) 100,00 %
01.08.2023 17:18 21,6 C 24,4 C 17,2 C 68 % 1002,0 hPa 0,0 l/m 2 min 0 min 661 W/m 35,4 km/h (5 Bft) 100,00 %
01.08.2023 17:20 21,7 C 22,8 C 17,2 C 67 % 1002,0 hPa 0,0 l/m 2 min 0 min 424 W/m 19,3 km/h (3 Bft) 100,00 %
01.08.2023 17:22 21,6 C 21,7 C 17,2 C 67 % 1002,2 hPa 0,0 l/m 0 min 0 min 142 W/m 19,3 km/h (3 Bft) 100,00 %
01.08.2023 17:24 21,6 C 21,7 C 17,2 C 68 % 1002,0 hPa 0,0 l/m 0 min 0 min 163 W/m 16,1 km/h (3 Bft) 100,00 %
01.08.2023 17:26 21,5 C 21,1 C 17,2 C 67 % 1002,0 hPa 0,0 l/m 0 min 0 min 104 W/m 22,5 km/h (4 Bft) 100,00 %
01.08.2023 17:28 21,4 C 20,6 C 16,7 C 67 % 1002,1 hPa 0,0 l/m 0 min 0 min 80 W/m 32,2 km/h (5 Bft) 100,00 %
01.08.2023 17:30 21,2 C 20,0 C 16,7 C 68 % 1002,1 hPa 0,0 l/m 0 min 0 min 94 W/m 22,5 km/h (4 Bft) 100,00 %
01.08.2023 17:32 21,1 C 20,0 C 16,7 C 68 % 1002,1 hPa 0,0 l/m 0 min 0 min 116 W/m 16,1 km/h (3 Bft) 100,00 %
01.08.2023 17:34 20,9 C 20,0 C 16,1 C 66 % 1002,2 hPa 0,0 l/m 0 min 0 min 116 W/m 22,5 km/h (4 Bft) 100,00 %
01.08.2023 17:36 20,8 C 20,0 C 16,1 C 67 % 1002,2 hPa 0,0 l/m 0 min 0 min 110 W/m 22,5 km/h (4 Bft) 100,00 %
01.08.2023 17:38 20,7 C 20,0 C 16,1 C 67 % 1002,2 hPa 0,0 l/m 0 min 0 min 122 W/m 16,1 km/h (3 Bft) 97,87 %
01.08.2023 17:40 20,7 C 20,0 C 16,1 C 67 % 1002,2 hPa 0,0 l/m 0 min 0 min 142 W/m 12,9 km/h (3 Bft) 97,87 %
01.08.2023 17:42 20,6 C 20,0 C 16,1 C 68 % 1002,3 hPa 0,0 l/m 0 min 0 min 133 W/m 19,3 km/h (3 Bft) 100,00 %
01.08.2023 17:44 20,6 C 20,0 C 16,1 C 68 % 1002,3 hPa 0,0 l/m 0 min 0 min 158 W/m 19,3 km/h (3 Bft) 100,00 %
01.08.2023 17:46 20,6 C 21,1 C 16,1 C 69 % 1002,3 hPa 0,0 l/m 0 min 0 min 238 W/m 22,5 km/h (4 Bft) 100,00 %
01.08.2023 17:48 20,6 C 21,1 C 16,7 C 69 % 1002,2 hPa 0,0 l/m 2 min 0 min 320 W/m 19,3 km/h (3 Bft) 100,00 %
01.08.2023 17:50 20,7 C 21,7 C 16,7 C 68 % 1002,3 hPa 0,0 l/m 0 min 0 min 231 W/m 19,3 km/h (3 Bft) 97,83 %
01.08.2023 17:52 20,8 C 22,8 C 16,7 C 68 % 1002,2 hPa 0,0 l/m 2 min 0 min 319 W/m 22,5 km/h (4 Bft) 96,23 %
01.08.2023 17:54 20,9 C 23,3 C 16,7 C 67 % 1002,2 hPa 0,0 l/m 2 min 0 min 599 W/m 19,3 km/h (3 Bft) 100,00 %
01.08.2023 17:56 21,0 C 23,3 C 17,2 C 66 % 1002,2 hPa 0,0 l/m 2 min 0 min 517 W/m 19,3 km/h (3 Bft) 100,00 %
01.08.2023 17:58 21,1 C 23,3 C 17,2 C 66 % 1002,3 hPa 0,0 l/m 2 min 0 min 526 W/m 25,7 km/h (4 Bft) 100,00 %
01.08.2023 18:00 21,1 C 23,3 C 17,2 C 67 % 1002,2 hPa 0,0 l/m 2 min 0 min 526 W/m 19,3 km/h (3 Bft) 97,87 %
01.08.2023 18:02 21,1 C 23,3 C 17,2 C 66 % 1002,3 hPa 0,0 l/m 2 min 0 min 496 W/m 22,5 km/h (4 Bft) 100,00 %
01.08.2023 18:04 21,1 C 23,3 C 17,2 C 66 % 1002,3 hPa 0,0 l/m 2 min 0 min 483 W/m 22,5 km/h (4 Bft) 100,00 %
01.08.2023 18:08 21,2 C 23,9 C 17,2 C 66 % 1002,2 hPa 0,0 l/m 4 min 0 min 465 W/m 16,1 km/h (3 Bft) 100,00 %
01.08.2023 18:10 21,2 C 24,4 C 17,2 C 67 % 1002,2 hPa 0,0 l/m 2 min 0 min 460 W/m 16,1 km/h (3 Bft) 97,87 %
01.08.2023 18:12 21,2 C 24,4 C 17,2 C 67 % 1002,3 hPa 0,0 l/m 2 min 0 min 450 W/m 16,1 km/h (3 Bft) 97,87 %
01.08.2023 18:14 21,3 C 24,4 C 17,2 C 67 % 1002,4 hPa 0,0 l/m 2 min 0 min 455 W/m 16,1 km/h (3 Bft) 97,87 %
01.08.2023 18:16 21,3 C 23,9 C 17,2 C 67 % 1002,4 hPa 0,0 l/m 2 min 0 min 467 W/m 16,1 km/h (3 Bft) 97,87 %
01.08.2023 18:18 21,3 C 22,8 C 17,2 C 67 % 1002,4 hPa 0,0 l/m 2 min 0 min 471 W/m 16,1 km/h (3 Bft) 97,87 %
01.08.2023 18:20 21,3 C 22,8 C 17,2 C 67 % 1002,4 hPa 0,0 l/m 2 min 0 min 471 W/m 12,9 km/h (3 Bft) 95,83 %
01.08.2023 18:22 21,2 C 22,2 C 17,2 C 67 % 1002,4 hPa 0,0 l/m 2 min 0 min 225 W/m 32,2 km/h (5 Bft) 93,62 %
01.08.2023 18:24 21,2 C 23,3 C 17,2 C 67 % 1002,5 hPa 0,0 l/m 2 min 0 min 415 W/m 19,3 km/h (3 Bft) 97,62 %
01.08.2023 18:26 21,2 C 23,3 C 17,2 C 67 % 1002,5 hPa 0,0 l/m 2 min 0 min 476 W/m 22,5 km/h (4 Bft) 97,87 %
01.08.2023 18:28 21,2 C 22,2 C 17,2 C 67 % 1002,5 hPa 0,0 l/m 2 min 0 min 369 W/m 19,3 km/h (3 Bft) 97,87 %
01.08.2023 18:30 21,2 C 22,2 C 17,2 C 67 % 1002,4 hPa 0,0 l/m 0 min 0 min 102 W/m 19,3 km/h (3 Bft) 95,74 %
01.08.2023 18:32 21,3 C 22,8 C 17,2 C 68 % 1002,5 hPa 0,0 l/m 0 min 0 min 102 W/m 6,4 km/h (2 Bft) 93,62 %
01.08.2023 18:34 21,3 C 23,9 C 17,2 C 69 % 1002,4 hPa 0,0 l/m 2 min 0 min 328 W/m 16,1 km/h (3 Bft) 95,74 %
01.08.2023 18:36 21,4 C 25,0 C 17,2 C 69 % 1002,4 hPa 0,0 l/m 2 min 0 min 399 W/m 12,9 km/h (3 Bft) 93,48 %
01.08.2023 18:38 21,6 C 25,0 C 17,8 C 68 % 1002,4 hPa 0,0 l/m 2 min 0 min 403 W/m 22,5 km/h (4 Bft) 95,74 %
01.08.2023 18:40 21,6 C 25,0 C 17,8 C 67 % 1002,5 hPa 0,0 l/m 2 min 0 min 380 W/m 12,9 km/h (3 Bft) 91,49 %
01.08.2023 18:42 21,6 C 23,9 C 17,8 C 68 % 1002,5 hPa 0,0 l/m 2 min 0 min 255 W/m 12,9 km/h (3 Bft) 95,74 %
01.08.2023 18:44 21,6 C 22,2 C 17,2 C 67 % 1002,4 hPa 0,0 l/m 0 min 0 min 69 W/m 19,3 km/h (3 Bft) 97,87 %
01.08.2023 18:46 21,5 C 21,1 C 17,2 C 67 % 1002,5 hPa 0,0 l/m 0 min 0 min 68 W/m 12,9 km/h (3 Bft) 95,74 %
01.08.2023 18:48 21,4 C 21,1 C 16,7 C 67 % 1002,5 hPa 0,0 l/m 0 min 0 min 71 W/m 19,3 km/h (3 Bft) 93,48 %
01.08.2023 18:50 21,2 C 21,1 C 16,7 C 68 % 1002,6 hPa 0,0 l/m 0 min 0 min 84 W/m 16,1 km/h (3 Bft) 93,62 %
01.08.2023 18:52 21,2 C 21,1 C 16,7 C 68 % 1002,5 hPa 0,0 l/m 0 min 0 min 135 W/m 9,7 km/h (2 Bft) 93,62 %
01.08.2023 18:54 21,1 C 21,1 C 16,7 C 68 % 1002,6 hPa 0,0 l/m 0 min 0 min 150 W/m 12,9 km/h (3 Bft) 91,49 %
01.08.2023 18:56 21,0 C 20,6 C 16,7 C 68 % 1002,6 hPa 0,0 l/m 0 min 0 min 111 W/m 19,3 km/h (3 Bft) 91,49 %
01.08.2023 18:58 21,0 C 21,1 C 16,7 C 68 % 1002,6 hPa 0,0 l/m 0 min 0 min 129 W/m 12,9 km/h (3 Bft) 92,86 %
01.08.2023 19:00 20,9 C 21,1 C 16,7 C 68 % 1002,6 hPa 0,0 l/m 0 min 0 min 137 W/m 9,7 km/h (2 Bft) 95,74 %
01.08.2023 19:02 20,9 C 21,1 C 16,7 C 68 % 1002,6 hPa 0,0 l/m 0 min 0 min 145 W/m 16,1 km/h (3 Bft) 93,62 %
01.08.2023 19:04 20,9 C 21,1 C 16,7 C 69 % 1002,6 hPa 0,0 l/m 0 min 0 min 113 W/m 12,9 km/h (3 Bft) 94,12 %
01.08.2023 19:06 20,9 C 20,6 C 16,1 C 68 % 1002,7 hPa 0,0 l/m 0 min 0 min 98 W/m 12,9 km/h (3 Bft) 94,92 %
01.08.2023 19:08 20,9 C 20,6 C 16,1 C 68 % 1002,7 hPa 0,0 l/m 0 min 0 min 84 W/m 9,7 km/h (2 Bft) 100,00 %
01.08.2023 19:10 20,8 C 20,0 C 16,1 C 68 % 1002,8 hPa 0,0 l/m 0 min 0 min 90 W/m 12,9 km/h (3 Bft) 95,74 %
01.08.2023 19:12 20,8 C 20,0 C 16,1 C 67 % 1002,7 hPa 0,0 l/m 0 min 0 min 95 W/m 16,1 km/h (3 Bft) 97,87 %
01.08.2023 19:14 20,7 C 20,0 C 16,1 C 67 % 1002,8 hPa 0,0 l/m 0 min 0 min 93 W/m 22,5 km/h (4 Bft) 97,83 %
01.08.2023 19:16 20,6 C 20,0 C 16,1 C 67 % 1002,7 hPa 0,0 l/m 0 min 0 min 91 W/m 19,3 km/h (3 Bft) 97,87 %
01.08.2023 19:18 20,5 C 20,0 C 16,1 C 67 % 1002,8 hPa 0,0 l/m 0 min 0 min 88 W/m 16,1 km/h (3 Bft) 97,87 %
01.08.2023 19:20 20,5 C 20,0 C 16,1 C 67 % 1002,7 hPa 0,0 l/m 0 min 0 min 95 W/m 16,1 km/h (3 Bft) 95,74 %
01.08.2023 19:22 20,4 C 20,0 C 16,1 C 68 % 1002,8 hPa 0,0 l/m 0 min 0 min 136 W/m 9,7 km/h (2 Bft) 97,87 %
01.08.2023 19:24 20,4 C 20,0 C 16,1 C 68 % 1002,7 hPa 0,0 l/m 0 min 0 min 132 W/m 16,1 km/h (3 Bft) 95,83 %
01.08.2023 19:26 20,4 C 20,0 C 16,1 C 68 % 1002,8 hPa 0,0 l/m 2 min 0 min 248 W/m 22,5 km/h (4 Bft) 97,87 %
01.08.2023 19:28 20,5 C 20,6 C 16,1 C 68 % 1002,8 hPa 0,0 l/m 2 min 0 min 289 W/m 16,1 km/h (3 Bft) 95,74 %
01.08.2023 19:30 20,6 C 20,6 C 16,1 C 69 % 1002,8 hPa 0,0 l/m 2 min 0 min 277 W/m 16,1 km/h (3 Bft) 97,87 %
01.08.2023 19:32 20,6 C 20,6 C 16,7 C 69 % 1002,8 hPa 0,0 l/m 2 min 0 min 208 W/m 16,1 km/h (3 Bft) 95,74 %
01.08.2023 19:34 20,7 C 20,6 C 16,7 C 69 % 1002,8 hPa 0,0 l/m 2 min 0 min 147 W/m 9,7 km/h (2 Bft) 95,74 %
01.08.2023 19:36 20,7 C 20,6 C 16,7 C 69 % 1002,8 hPa 0,0 l/m 2 min 0 min 142 W/m 16,1 km/h (3 Bft) 100,00 %
01.08.2023 19:38 20,8 C 20,6 C 16,7 C 69 % 1002,8 hPa 0,0 l/m 2 min 0 min 139 W/m 12,9 km/h (3 Bft) 100,00 %
01.08.2023 19:40 20,8 C 20,6 C 16,7 C 70 % 1002,8 hPa 0,0 l/m 2 min 0 min 127 W/m 12,9 km/h (3 Bft) 100,00 %
01.08.2023 19:42 20,8 C 20,6 C 16,1 C 69 % 1002,9 hPa 0,0 l/m 2 min 0 min 115 W/m 25,7 km/h (4 Bft) 100,00 %
01.08.2023 19:44 20,7 C 20,6 C 16,1 C 69 % 1002,9 hPa 0,0 l/m 0 min 0 min 107 W/m 16,1 km/h (3 Bft) 97,87 %
01.08.2023 19:46 20,7 C 20,0 C 16,1 C 69 % 1002,9 hPa 0,0 l/m 0 min 0 min 100 W/m 16,1 km/h (3 Bft) 100,00 %
01.08.2023 19:48 20,6 C 20,0 C 16,1 C 69 % 1002,9 hPa 0,0 l/m 0 min 0 min 82 W/m 16,1 km/h (3 Bft) 100,00 %
01.08.2023 19:50 20,5 C 19,4 C 16,1 C 69 % 1003,0 hPa 0,0 l/m 0 min 0 min 69 W/m 16,1 km/h (3 Bft) 100,00 %
01.08.2023 19:52 20,3 C 19,4 C 15,6 C 69 % 1003,1 hPa 0,0 l/m 0 min 0 min 54 W/m 16,1 km/h (3 Bft) 100,00 %
01.08.2023 19:54 20,3 C 19,4 C 15,6 C 69 % 1003,0 hPa 0,0 l/m 0 min 0 min 52 W/m 16,1 km/h (3 Bft) 100,00 %
01.08.2023 19:56 20,1 C 19,4 C 15,6 C 69 % 1003,0 hPa 0,0 l/m 0 min 0 min 57 W/m 16,1 km/h (3 Bft) 100,00 %
01.08.2023 19:58 20,1 C 19,4 C 15,6 C 69 % 1003,0 hPa 0,0 l/m 0 min 0 min 63 W/m 9,7 km/h (2 Bft) 100,00 %
01.08.2023 20:00 20,0 C 18,9 C 15,6 C 69 % 1003,1 hPa 0,0 l/m 0 min 0 min 64 W/m 16,1 km/h (3 Bft) 97,87 %
01.08.2023 20:02 19,9 C 18,9 C 15,6 C 70 % 1003,2 hPa 0,0 l/m 0 min 0 min 69 W/m 22,5 km/h (4 Bft) 100,00 %
01.08.2023 20:04 19,8 C 18,9 C 15,6 C 70 % 1003,0 hPa 0,0 l/m 0 min 0 min 75 W/m 12,9 km/h (3 Bft) 100,00 %
01.08.2023 20:06 19,8 C 18,9 C 15,6 C 70 % 1003,1 hPa 0,0 l/m 0 min 0 min 68 W/m 19,3 km/h (3 Bft) 100,00 %
01.08.2023 20:08 19,8 C 18,9 C 15,6 C 70 % 1003,1 hPa 0,0 l/m 0 min 0 min 64 W/m 12,9 km/h (3 Bft) 97,87 %
01.08.2023 20:10 19,7 C 18,9 C 15,6 C 70 % 1003,2 hPa 0,0 l/m 0 min 0 min 61 W/m 19,3 km/h (3 Bft) 100,00 %
01.08.2023 20:12 19,7 C 18,9 C 15,0 C 70 % 1003,2 hPa 0,0 l/m 0 min 0 min 58 W/m 16,1 km/h (3 Bft) 100,00 %
01.08.2023 20:14 19,6 C 18,9 C 15,0 C 71 % 1003,2 hPa 0,0 l/m 0 min 0 min 54 W/m 12,9 km/h (3 Bft) 100,00 %
01.08.2023 20:16 19,6 C 18,9 C 15,0 C 71 % 1003,3 hPa 0,0 l/m 0 min 0 min 51 W/m 16,1 km/h (3 Bft) 97,83 %
01.08.2023 20:18 19,5 C 18,9 C 15,0 C 71 % 1003,3 hPa 0,0 l/m 0 min 0 min 47 W/m 19,3 km/h (3 Bft) 97,87 %
01.08.2023 20:20 19,5 C 18,9 C 15,0 C 71 % 1003,3 hPa 0,0 l/m 0 min 0 min 42 W/m 19,3 km/h (3 Bft) 100,00 %
01.08.2023 20:22 19,4 C 18,3 C 15,0 C 71 % 1003,3 hPa 0,0 l/m 0 min 0 min 36 W/m 16,1 km/h (3 Bft) 100,00 %
01.08.2023 20:24 19,3 C 18,3 C 15,0 C 71 % 1003,2 hPa 0,0 l/m 0 min 0 min 34 W/m 9,7 km/h (2 Bft) 97,87 %
01.08.2023 20:26 19,3 C 18,3 C 15,0 C 72 % 1003,3 hPa 0,0 l/m 0 min 0 min 32 W/m 12,9 km/h (3 Bft) 97,87 %
01.08.2023 20:28 19,3 C 18,3 C 15,0 C 72 % 1003,3 hPa 0,0 l/m 0 min 0 min 29 W/m 12,9 km/h (3 Bft) 100,00 %
01.08.2023 20:30 19,2 C 18,3 C 15,0 C 72 % 1003,3 hPa 0,0 l/m 0 min 0 min 28 W/m 12,9 km/h (3 Bft) 97,83 %
01.08.2023 20:32 19,2 C 18,3 C 15,0 C 72 % 1003,3 hPa 0,0 l/m 0 min 0 min 26 W/m 6,4 km/h (2 Bft) 100,00 %
01.08.2023 20:34 19,2 C 18,3 C 15,0 C 73 % 1003,3 hPa 0,0 l/m 0 min 0 min 26 W/m 9,7 km/h (2 Bft) 93,62 %
01.08.2023 20:36 19,2 C 18,3 C 15,0 C 73 % 1003,4 hPa 0,0 l/m 0 min 0 min 25 W/m 12,9 km/h (3 Bft) 97,87 %
01.08.2023 20:38 19,2 C 18,3 C 15,0 C 73 % 1003,3 hPa 0,0 l/m 0 min 0 min 23 W/m 12,9 km/h (3 Bft) 97,87 %
01.08.2023 20:40 19,2 C 18,3 C 14,4 C 73 % 1003,4 hPa 0,0 l/m 0 min 0 min 19 W/m 12,9 km/h (3 Bft) 97,87 %
01.08.2023 20:42 19,1 C 18,3 C 14,4 C 73 % 1003,3 hPa 0,0 l/m 0 min 0 min 14 W/m 6,4 km/h (2 Bft) 97,83 %
01.08.2023 20:44 19,1 C 18,3 C 14,4 C 73 % 1003,3 hPa 0,0 l/m 0 min 0 min 12 W/m 6,4 km/h (2 Bft) 97,87 %
01.08.2023 20:46 19,1 C 18,3 C 14,4 C 74 % 1003,4 hPa 0,0 l/m 0 min 0 min 11 W/m 12,9 km/h (3 Bft) 97,87 %
01.08.2023 20:48 19,1 C 18,3 C 14,4 C 74 % 1003,4 hPa 0,0 l/m 0 min 0 min 11 W/m 6,4 km/h (2 Bft) 95,74 %
01.08.2023 20:50 19,1 C 18,3 C 14,4 C 74 % 1003,4 hPa 0,0 l/m 0 min 0 min 9 W/m 3,2 km/h (1 Bft) 95,74 %
01.08.2023 20:52 19,1 C 18,3 C 14,4 C 74 % 1003,4 hPa 0,0 l/m 0 min 0 min 9 W/m 6,4 km/h (2 Bft) 97,87 %
01.08.2023 20:54 19,0 C 18,3 C 14,4 C 74 % 1003,4 hPa 0,0 l/m 0 min 0 min 9 W/m 9,7 km/h (2 Bft) 95,74 %
01.08.2023 20:56 19,0 C 17,8 C 14,4 C 74 % 1003,4 hPa 0,0 l/m 0 min 0 min 8 W/m 3,2 km/h (1 Bft) 95,65 %
01.08.2023 20:58 18,9 C 17,8 C 14,4 C 74 % 1003,5 hPa 0,0 l/m 0 min 0 min 7 W/m 9,7 km/h (2 Bft) 97,87 %
01.08.2023 21:00 18,9 C 17,8 C 14,4 C 74 % 1003,4 hPa 0,0 l/m 0 min 0 min 6 W/m 12,9 km/h (3 Bft) 97,87 %
01.08.2023 21:02 18,9 C 17,8 C 14,4 C 75 % 1003,5 hPa 0,0 l/m 0 min 0 min 5 W/m 12,9 km/h (3 Bft) 97,87 %
01.08.2023 21:04 18,9 C 17,8 C 14,4 C 75 % 1003,5 hPa 0,0 l/m 0 min 0 min 5 W/m 9,7 km/h (2 Bft) 98,00 %
01.08.2023 21:06 18,8 C 17,8 C 14,4 C 75 % 1003,5 hPa 0,0 l/m 0 min 0 min 5 W/m 12,9 km/h (3 Bft) 97,87 %
01.08.2023 21:08 18,8 C 17,8 C 14,4 C 75 % 1003,6 hPa 0,0 l/m 0 min 0 min 5 W/m 16,1 km/h (3 Bft) 100,00 %
01.08.2023 21:10 18,8 C 17,8 C 14,4 C 75 % 1003,6 hPa 0,0 l/m 0 min 0 min 0 W/m 6,4 km/h (2 Bft) 97,83 %
01.08.2023 21:12 18,8 C 17,8 C 14,4 C 76 % 1003,6 hPa 0,0 l/m 0 min 0 min 0 W/m 12,9 km/h (3 Bft) 97,87 %
01.08.2023 21:14 18,8 C 17,8 C 14,4 C 76 % 1003,7 hPa 0,0 l/m 0 min 0 min 0 W/m 16,1 km/h (3 Bft) 97,87 %
01.08.2023 21:16 18,8 C 17,8 C 14,4 C 76 % 1003,7 hPa 0,0 l/m 0 min 0 min 0 W/m 9,7 km/h (2 Bft) 97,87 %
01.08.2023 21:18 18,7 C 17,8 C 14,4 C 76 % 1003,7 hPa 0,0 l/m 0 min 0 min 0 W/m 6,4 km/h (2 Bft) 97,87 %
01.08.2023 21:20 18,7 C 17,8 C 14,4 C 76 % 1003,7 hPa 0,0 l/m 0 min 0 min 0 W/m 6,4 km/h (2 Bft) 97,87 %
01.08.2023 21:22 18,7 C 17,8 C 14,4 C 77 % 1003,7 hPa 0,0 l/m 0 min 0 min 0 W/m 6,4 km/h (2 Bft) 95,65 %
01.08.2023 21:24 18,7 C 17,8 C 14,4 C 76 % 1003,8 hPa 0,0 l/m 0 min 0 min 0 W/m 9,7 km/h (2 Bft) 97,87 %
01.08.2023 21:26 18,7 C 17,8 C 13,9 C 77 % 1003,8 hPa 0,0 l/m 0 min 0 min 0 W/m 9,7 km/h (2 Bft) 95,74 %
01.08.2023 21:28 18,6 C 17,8 C 13,9 C 77 % 1003,9 hPa 0,0 l/m 0 min 0 min 0 W/m 6,4 km/h (2 Bft) 97,87 %
01.08.2023 21:30 18,6 C 17,8 C 13,9 C 77 % 1004,0 hPa 0,0 l/m 0 min 0 min 0 W/m 19,3 km/h (3 Bft) 97,87 %
01.08.2023 21:32 18,6 C 17,8 C 13,9 C 77 % 1003,9 hPa 0,0 l/m 0 min 0 min 0 W/m 12,9 km/h (3 Bft) 95,74 %
01.08.2023 21:34 18,5 C 17,8 C 13,9 C 77 % 1003,9 hPa 0,0 l/m 0 min 0 min 0 W/m 16,1 km/h (3 Bft) 95,74 %
01.08.2023 21:36 18,5 C 17,8 C 13,9 C 77 % 1003,9 hPa 0,0 l/m 0 min 0 min 0 W/m 12,9 km/h (3 Bft) 95,65 %
01.08.2023 21:38 18,5 C 17,8 C 13,9 C 77 % 1004,0 hPa 0,0 l/m 0 min 0 min 0 W/m 16,1 km/h (3 Bft) 95,74 %
01.08.2023 21:40 18,4 C 17,8 C 13,9 C 78 % 1004,0 hPa 0,0 l/m 0 min 0 min 0 W/m 6,4 km/h (2 Bft) 93,62 %
01.08.2023 21:42 18,4 C 17,8 C 13,9 C 78 % 1004,0 hPa 0,0 l/m 0 min 0 min 0 W/m 12,9 km/h (3 Bft) 95,74 %
01.08.2023 21:44 18,4 C 17,8 C 13,9 C 78 % 1004,0 hPa 0,0 l/m 0 min 0 min 0 W/m 16,1 km/h (3 Bft) 97,14 %
01.08.2023 21:46 18,4 C 17,2 C 13,9 C 78 % 1004,0 hPa 0,0 l/m 0 min 0 min 0 W/m 6,4 km/h (2 Bft) 94,44 %
01.08.2023 21:48 18,4 C 17,2 C 13,9 C 78 % 1004,0 hPa 0,0 l/m 0 min 0 min 0 W/m 12,9 km/h (3 Bft) 95,74 %
01.08.2023 21:50 18,3 C 17,2 C 13,9 C 78 % 1004,0 hPa 0,0 l/m 0 min 0 min 0 W/m 12,9 km/h (3 Bft) 95,74 %
01.08.2023 21:52 18,3 C 17,2 C 13,9 C 78 % 1004,0 hPa 0,0 l/m 0 min 0 min 0 W/m 12,9 km/h (3 Bft) 95,74 %
01.08.2023 21:54 18,3 C 17,2 C 13,9 C 78 % 1004,2 hPa 0,0 l/m 0 min 0 min 0 W/m 19,3 km/h (3 Bft) 93,48 %
01.08.2023 21:56 18,2 C 17,2 C 13,9 C 77 % 1004,1 hPa 0,0 l/m 0 min 0 min 0 W/m 22,5 km/h (4 Bft) 95,74 %
01.08.2023 21:58 18,2 C 17,2 C 13,9 C 78 % 1004,1 hPa 0,0 l/m 0 min 0 min 0 W/m 19,3 km/h (3 Bft) 95,74 %
01.08.2023 22:00 18,2 C 17,2 C 13,9 C 78 % 1004,1 hPa 0,0 l/m 0 min 0 min 0 W/m 16,1 km/h (3 Bft) 95,74 %
01.08.2023 22:02 18,1 C 17,2 C 13,9 C 78 % 1004,1 hPa 0,0 l/m 0 min 0 min 0 W/m 12,9 km/h (3 Bft) 95,74 %
01.08.2023 22:04 18,1 C 17,2 C 13,9 C 78 % 1004,1 hPa 0,0 l/m 0 min 0 min 0 W/m 9,7 km/h (2 Bft) 95,35 %
01.08.2023 22:06 18,1 C 17,2 C 13,9 C 79 % 1004,1 hPa 0,0 l/m 0 min 0 min 0 W/m 9,7 km/h (2 Bft) 97,83 %
01.08.2023 22:08 18,1 C 17,2 C 13,9 C 79 % 1004,0 hPa 0,0 l/m 0 min 0 min 0 W/m 6,4 km/h (2 Bft) 97,87 %
01.08.2023 22:10 18,1 C 17,2 C 13,9 C 79 % 1004,1 hPa 0,0 l/m 0 min 0 min 0 W/m 22,5 km/h (4 Bft) 97,87 %
01.08.2023 22:12 18,0 C 17,2 C 13,9 C 79 % 1004,0 hPa 0,0 l/m 0 min 0 min 0 W/m 12,9 km/h (3 Bft) 95,74 %
01.08.2023 22:14 18,0 C 17,2 C 13,9 C 80 % 1004,0 hPa 0,0 l/m 0 min 0 min 0 W/m 6,4 km/h (2 Bft) 97,87 %
01.08.2023 22:16 18,0 C 17,2 C 13,3 C 80 % 1004,0 hPa 0,0 l/m 0 min 0 min 0 W/m 12,9 km/h (3 Bft) 97,87 %
01.08.2023 22:18 18,0 C 17,2 C 13,3 C 80 % 1004,1 hPa 0,0 l/m 0 min 0 min 0 W/m 6,4 km/h (2 Bft) 93,48 %
01.08.2023 22:20 17,9 C 17,2 C 13,3 C 80 % 1004,1 hPa 0,0 l/m 0 min 0 min 0 W/m 6,4 km/h (2 Bft) 100,00 %
01.08.2023 22:22 17,9 C 17,2 C 13,3 C 80 % 1004,1 hPa 0,0 l/m 0 min 0 min 0 W/m 9,7 km/h (2 Bft) 97,87 %
01.08.2023 22:24 17,9 C 16,7 C 13,3 C 80 % 1004,1 hPa 0,0 l/m 0 min 0 min 0 W/m 19,3 km/h (3 Bft) 95,74 %
01.08.2023 22:26 17,9 C 16,7 C 13,3 C 80 % 1004,1 hPa 0,0 l/m 0 min 0 min 0 W/m 12,9 km/h (3 Bft) 100,00 %
01.08.2023 22:28 17,9 C 16,7 C 13,3 C 80 % 1004,1 hPa 0,0 l/m 0 min 0 min 0 W/m 6,4 km/h (2 Bft) 97,87 %
01.08.2023 22:30 17,8 C 16,7 C 13,3 C 80 % 1004,1 hPa 0,0 l/m 0 min 0 min 0 W/m 12,9 km/h (3 Bft) 95,65 %
01.08.2023 22:32 17,8 C 16,7 C 13,3 C 81 % 1004,1 hPa 0,0 l/m 0 min 0 min 0 W/m 6,4 km/h (2 Bft) 97,87 %
01.08.2023 22:34 17,7 C 16,7 C 13,3 C 81 % 1004,1 hPa 0,0 l/m 0 min 0 min 0 W/m 6,4 km/h (2 Bft) 97,87 %
01.08.2023 22:36 17,7 C 16,7 C 13,3 C 81 % 1004,1 hPa 0,0 l/m 0 min 0 min 0 W/m 9,7 km/h (2 Bft) 95,74 %
01.08.2023 22:38 17,7 C 16,7 C 13,3 C 82 % 1004,1 hPa 0,0 l/m 0 min 0 min 0 W/m 6,4 km/h (2 Bft) 97,87 %
01.08.2023 22:40 17,6 C 16,7 C 13,3 C 82 % 1004,1 hPa 0,0 l/m 0 min 0 min 0 W/m 12,9 km/h (3 Bft) 97,87 %
01.08.2023 22:42 17,6 C 16,7 C 13,3 C 82 % 1004,1 hPa 0,0 l/m 0 min 0 min 0 W/m 0,0 km/h (0 Bft) 95,74 %
01.08.2023 22:44 17,6 C 16,7 C 13,3 C 82 % 1004,2 hPa 0,0 l/m 0 min 0 min 0 W/m 0,0 km/h (0 Bft) 97,83 %
01.08.2023 22:46 17,6 C 16,7 C 13,3 C 82 % 1004,1 hPa 0,0 l/m 0 min 0 min 0 W/m 0,0 km/h (0 Bft) 97,87 %
01.08.2023 22:48 17,6 C 16,7 C 13,3 C 82 % 1004,1 hPa 0,0 l/m 0 min 0 min 0 W/m 0,0 km/h (0 Bft) 95,74 %
01.08.2023 22:50 17,6 C 16,7 C 13,3 C 82 % 1004,1 hPa 0,0 l/m 0 min 0 min 0 W/m 3,2 km/h (1 Bft) 97,87 %
01.08.2023 22:52 17,6 C 16,7 C 13,3 C 82 % 1004,1 hPa 0,0 l/m 0 min 0 min 0 W/m 0,0 km/h (0 Bft) 97,87 %
01.08.2023 22:54 17,6 C 16,7 C 13,3 C 82 % 1004,1 hPa 0,0 l/m 0 min 0 min 0 W/m 0,0 km/h (0 Bft) 96,36 %
01.08.2023 22:56 17,5 C 16,7 C 13,3 C 82 % 1004,1 hPa 0,0 l/m 0 min 0 min 0 W/m 0,0 km/h (0 Bft) 93,62 %
01.08.2023 22:58 17,5 C 16,7 C 13,3 C 82 % 1004,0 hPa 0,0 l/m 0 min 0 min 0 W/m 3,2 km/h (1 Bft) 95,65 %
01.08.2023 23:00 17,5 C 16,7 C 13,3 C 82 % 1004,0 hPa 0,0 l/m 0 min 0 min 0 W/m 6,4 km/h (2 Bft) 100,00 %
01.08.2023 23:02 17,5 C 16,7 C 13,3 C 82 % 1003,9 hPa 0,0 l/m 0 min 0 min 0 W/m 0,0 km/h (0 Bft) 97,87 %
01.08.2023 23:04 17,4 C 16,7 C 13,3 C 82 % 1003,8 hPa 0,0 l/m 0 min 0 min 0 W/m 0,0 km/h (0 Bft) 97,87 %
01.08.2023 23:06 17,4 C 16,7 C 12,8 C 83 % 1003,8 hPa 0,0 l/m 0 min 0 min 0 W/m 0,0 km/h (0 Bft) 100,00 %
01.08.2023 23:08 17,4 C 16,7 C 12,8 C 83 % 1003,8 hPa 0,0 l/m 0 min 0 min 0 W/m 3,2 km/h (1 Bft) 100,00 %
01.08.2023 23:10 17,4 C 16,1 C 12,8 C 83 % 1003,8 hPa 0,0 l/m 0 min 0 min 0 W/m 0,0 km/h (0 Bft) 100,00 %
01.08.2023 23:12 17,4 C 16,1 C 12,8 C 83 % 1003,8 hPa 0,0 l/m 0 min 0 min 0 W/m 0,0 km/h (0 Bft) 97,87 %
01.08.2023 23:14 17,3 C 16,1 C 12,8 C 83 % 1003,8 hPa 0,0 l/m 0 min 0 min 0 W/m 0,0 km/h (0 Bft) 100,00 %
01.08.2023 23:16 17,3 C 16,1 C 12,8 C 83 % 1003,8 hPa 0,0 l/m 0 min 0 min 0 W/m 0,0 km/h (0 Bft) 100,00 %
01.08.2023 23:18 17,3 C 16,1 C 12,8 C 83 % 1003,8 hPa 0,0 l/m 0 min 0 min 0 W/m 0,0 km/h (0 Bft) 97,87 %
01.08.2023 23:20 17,3 C 16,1 C 12,8 C 83 % 1003,8 hPa 0,0 l/m 0 min 0 min 0 W/m 0,0 km/h (0 Bft) 100,00 %
01.08.2023 23:22 17,3 C 16,1 C 12,8 C 83 % 1003,8 hPa 0,0 l/m 0 min 0 min 0 W/m 0,0 km/h (0 Bft) 100,00 %
01.08.2023 23:24 17,2 C 16,1 C 12,8 C 83 % 1003,8 hPa 0,0 l/m 0 min 0 min 0 W/m 0,0 km/h (0 Bft) 95,65 %
01.08.2023 23:26 17,2 C 16,1 C 12,8 C 83 % 1003,8 hPa 0,0 l/m 0 min 0 min 0 W/m 0,0 km/h (0 Bft) 100,00 %
01.08.2023 23:28 17,2 C 16,1 C 12,8 C 83 % 1003,8 hPa 0,0 l/m 0 min 0 min 0 W/m 0,0 km/h (0 Bft) 100,00 %
01.08.2023 23:30 17,2 C 15,6 C 12,8 C 84 % 1003,8 hPa 0,0 l/m 0 min 0 min 0 W/m 0,0 km/h (0 Bft) 97,87 %
01.08.2023 23:32 17,2 C 15,6 C 12,8 C 84 % 1003,8 hPa 0,0 l/m 0 min 0 min 0 W/m 0,0 km/h (0 Bft) 97,87 %
01.08.2023 23:34 17,1 C 15,6 C 12,8 C 84 % 1003,8 hPa 0,0 l/m 0 min 0 min 0 W/m 0,0 km/h (0 Bft) 97,87 %
01.08.2023 23:36 17,1 C 15,6 C 12,8 C 84 % 1003,8 hPa 0,0 l/m 0 min 0 min 0 W/m 0,0 km/h (0 Bft) 97,83 %
01.08.2023 23:38 17,1 C 15,6 C 12,8 C 84 % 1003,8 hPa 0,0 l/m 0 min 0 min 0 W/m 3,2 km/h (1 Bft) 100,00 %
01.08.2023 23:40 17,1 C 15,6 C 12,8 C 85 % 1003,7 hPa 0,0 l/m 0 min 0 min 0 W/m 0,0 km/h (0 Bft) 100,00 %
01.08.2023 23:42 17,0 C 15,6 C 12,8 C 85 % 1003,8 hPa 0,0 l/m 0 min 0 min 0 W/m 0,0 km/h (0 Bft) 97,87 %
01.08.2023 23:44 17,0 C 15,6 C 12,8 C 85 % 1003,7 hPa 0,0 l/m 0 min 0 min 0 W/m 0,0 km/h (0 Bft) 100,00 %
01.08.2023 23:46 17,0 C 15,6 C 12,8 C 85 % 1003,7 hPa 0,0 l/m 0 min 0 min 0 W/m 0,0 km/h (0 Bft) 95,74 %
01.08.2023 23:48 16,9 C 15,6 C 12,8 C 85 % 1003,7 hPa 0,0 l/m 0 min 0 min 0 W/m 0,0 km/h (0 Bft) 100,00 %
01.08.2023 23:50 16,9 C 15,6 C 12,8 C 86 % 1003,8 hPa 0,0 l/m 0 min 0 min 0 W/m 0,0 km/h (0 Bft) 100,00 %
01.08.2023 23:52 16,9 C 15,6 C 12,8 C 86 % 1003,8 hPa 0,0 l/m 0 min 0 min 0 W/m 0,0 km/h (0 Bft) 95,74 %
01.08.2023 23:54 16,9 C 15,6 C 12,8 C 86 % 1003,8 hPa 0,0 l/m 0 min 0 min 0 W/m 0,0 km/h (0 Bft) 100,00 %
01.08.2023 23:56 16,9 C 15,6 C 12,8 C 86 % 1003,8 hPa 0,0 l/m 0 min 0 min 0 W/m 0,0 km/h (0 Bft) 100,00 %
01.08.2023 23:58 16,9 C 15,6 C 12,8 C 86 % 1003,8 hPa 0,0 l/m 0 min 0 min 0 W/m 0,0 km/h (0 Bft) 97,87 %
_ Min-Zeit 06:38 05:10 05:12 17:34 03:38 - - - - 00:10 02:58
Minimum _ 15,1 C 14,4 C 11,7 C 66 % 998,5 hPa - - - - 0,0 km/h (0 Bft) 91,49 %
_ Max-Zeit 17:02 15:00 16:58 03:38 21:54 00:36 18:08 00:08 12:58 16:18 01:10
Maximum _ 21,8 C 25,0 C 17,8 C 100 % 1004,2 hPa 0,6 l/m 4 min 4 min 987 W/m 45,1 km/h
N-NW (6 Bft)
100,00 %
Durchschnitt _ 18,0 C 17,9 C 14,1 C 86 % 1001,1 hPa #10,0 l/m #3:58 h #3:24 h 245 W/m 13,0 km/h (3 Bft) 97,50 %
© 2023 W. Hausmann